BAW59 EGLL-FACT
Flight info
| Callsign | BAW59 |
|---|---|
| Flight time | 11h 23m |
| Altitude | 35000 |
| Route | MODMI1J MODMI M185 MID L612 HAWKE UL612 VEULE DCT DEKOD DCT DISAK DCT DIRMO DCT ETAMO DCT ADEKA DCT MOKDI DCT MEN DCT AMLIR DCT FJR DCT OBLAD DCT KAMER UM998 CSO UA605 DJA UB730 IKTAV/N0490F370 UB730 DIR UA607 FL UA403 BZ/N0488F390 DCT KSA UT943 IMVEX/N0490F380 UT943 UNLOK/N0487F390 UT943 VEDRY/N0484F400 UN185 OKLOK Q23 DUMDO DCT ERDAS ERDAS1B |
| Aircraft | A35K/H-SBDE1E2E3GHIJ1J3J4J5J6M1M2P2RWXYZ/LB1D1 |
Departure
| Time | 2026-05-06 01:03 |
|---|---|
| Airport | London Heathrow Airport (EGLL) |
Arrival
| Time | 2026-05-06 12:26 |
|---|---|
| Airport | Cape Town International Airport (FACT) |
| Time | Latitude | Longitude | Altitude | Speed | Heading |
|---|---|---|---|---|---|
| 2026-05-06 00:54 | 51.46982 | -0.48240 | 92 ft | 0 kts | 90° |
| 2026-05-06 00:57 | 51.46982 | -0.48241 | 92 ft | 1 kts | 90° |
| 2026-05-06 00:57 | 51.46981 | -0.48269 | 94 ft | 3 kts | 93° |
| 2026-05-06 00:57 | 51.46985 | -0.48299 | 92 ft | 3 kts | 108° |
| 2026-05-06 00:58 | 51.46990 | -0.48327 | 90 ft | 3 kts | 114° |
| 2026-05-06 00:58 | 51.47001 | -0.48353 | 95 ft | 3 kts | 150° |
| 2026-05-06 00:58 | 51.47007 | -0.48359 | 92 ft | 0 kts | 163° |
| 2026-05-06 00:59 | 51.47006 | -0.48359 | 91 ft | 0 kts | 166° |
| 2026-05-06 00:59 | 51.46990 | -0.48356 | 91 ft | 4 kts | 176° |
| 2026-05-06 01:00 | 51.46946 | -0.48355 | 93 ft | 8 kts | 179° |
| 2026-05-06 01:00 | 51.46874 | -0.48354 | 94 ft | 12 kts | 179° |
| 2026-05-06 01:00 | 51.46780 | -0.48361 | 92 ft | 15 kts | 198° |
| 2026-05-06 01:00 | 51.46703 | -0.48458 | 97 ft | 15 kts | 198° |
| 2026-05-06 01:01 | 51.46593 | -0.48467 | 94 ft | 17 kts | 180° |
| 2026-05-06 01:01 | 51.46487 | -0.48414 | 94 ft | 13 kts | 117° |
| 2026-05-06 01:01 | 51.46481 | -0.48326 | 95 ft | 3 kts | 90° |
| 2026-05-06 01:02 | 51.46481 | -0.48325 | 95 ft | 0 kts | 90° |
| 2026-05-06 01:02 | 51.46481 | -0.47991 | 95 ft | 62 kts | 89° |
| 2026-05-06 01:02 | 51.46484 | -0.47379 | 95 ft | 100 kts | 90° |
| 2026-05-06 01:02 | 51.46487 | -0.46008 | 95 ft | 148 kts | 90° |
| 2026-05-06 01:03 | 51.46498 | -0.44181 | 366 ft | 167 kts | 87° |
| 2026-05-06 01:03 | 51.46384 | -0.42365 | 1024 ft | 165 kts | 103° |
| 2026-05-06 01:03 | 51.45921 | -0.40571 | 1384 ft | 183 kts | 113° |
| 2026-05-06 01:03 | 51.45065 | -0.38878 | 1542 ft | 213 kts | 141° |
| 2026-05-06 01:04 | 51.43638 | -0.37825 | 1788 ft | 240 kts | 158° |
| 2026-05-06 01:04 | 51.41987 | -0.36962 | 2189 ft | 255 kts | 159° |
| 2026-05-06 01:04 | 51.40255 | -0.36264 | 2890 ft | 260 kts | 172° |
| 2026-05-06 01:04 | 51.38451 | -0.36677 | 3492 ft | 269 kts | 201° |
| 2026-05-06 01:05 | 51.36764 | -0.37932 | 4106 ft | 272 kts | 207° |
| 2026-05-06 01:05 | 51.35072 | -0.39300 | 4785 ft | 274 kts | 208° |
| 2026-05-06 01:05 | 51.33366 | -0.40661 | 5488 ft | 274 kts | 207° |
| 2026-05-06 01:05 | 51.31646 | -0.42014 | 6091 ft | 276 kts | 207° |
| 2026-05-06 01:06 | 51.29918 | -0.43382 | 6792 ft | 278 kts | 207° |
| 2026-05-06 01:06 | 51.28171 | -0.44761 | 7459 ft | 281 kts | 207° |
| 2026-05-06 01:06 | 51.26409 | -0.46154 | 8144 ft | 285 kts | 208° |
| 2026-05-06 01:06 | 51.24624 | -0.47584 | 8804 ft | 289 kts | 208° |
| 2026-05-06 01:07 | 51.22420 | -0.49352 | 9648 ft | 294 kts | 208° |
| 2026-05-06 01:07 | 51.20571 | -0.50815 | 10249 ft | 300 kts | 207° |
| 2026-05-06 01:07 | 51.18639 | -0.52316 | 10551 ft | 318 kts | 207° |
| 2026-05-06 01:07 | 51.16595 | -0.53892 | 10837 ft | 335 kts | 207° |
| 2026-05-06 01:08 | 51.14442 | -0.55547 | 11118 ft | 352 kts | 207° |
| 2026-05-06 01:08 | 51.12186 | -0.57281 | 11424 ft | 368 kts | 207° |
| 2026-05-06 01:08 | 51.09815 | -0.59019 | 11726 ft | 382 kts | 202° |
| 2026-05-06 01:08 | 51.07217 | -0.60102 | 12247 ft | 390 kts | 188° |
| 2026-05-06 01:09 | 51.04500 | -0.60053 | 12871 ft | 395 kts | 171° |
| 2026-05-06 01:09 | 51.01883 | -0.58688 | 13493 ft | 398 kts | 154° |
| 2026-05-06 01:09 | 50.99441 | -0.56558 | 14092 ft | 402 kts | 148° |
| 2026-05-06 01:09 | 50.97085 | -0.54118 | 14652 ft | 406 kts | 146° |
| 2026-05-06 01:10 | 50.94788 | -0.51566 | 15221 ft | 409 kts | 144° |
| 2026-05-06 01:10 | 50.92454 | -0.48934 | 15799 ft | 412 kts | 145° |
| 2026-05-06 01:10 | 50.90098 | -0.46307 | 16393 ft | 415 kts | 145° |
| 2026-05-06 01:10 | 50.87709 | -0.43692 | 17007 ft | 417 kts | 146° |
| 2026-05-06 01:11 | 50.85306 | -0.41105 | 17600 ft | 420 kts | 146° |
| 2026-05-06 01:11 | 50.82869 | -0.38510 | 18188 ft | 423 kts | 146° |
| 2026-05-06 01:11 | 50.80408 | -0.35906 | 18691 ft | 427 kts | 146° |
| 2026-05-06 01:11 | 50.77929 | -0.33293 | 19228 ft | 430 kts | 146° |
| 2026-05-06 01:12 | 50.75428 | -0.30660 | 19755 ft | 433 kts | 146° |
| 2026-05-06 01:12 | 50.72905 | -0.28007 | 20298 ft | 437 kts | 146° |
| 2026-05-06 01:12 | 50.70403 | -0.25378 | 20821 ft | 440 kts | 147° |
| 2026-05-06 01:12 | 50.67841 | -0.22686 | 21370 ft | 443 kts | 147° |
| 2026-05-06 01:13 | 50.65258 | -0.19976 | 21897 ft | 447 kts | 147° |
| 2026-05-06 01:13 | 50.62645 | -0.17242 | 22323 ft | 454 kts | 146° |
| 2026-05-06 01:13 | 50.59997 | -0.14472 | 22773 ft | 459 kts | 146° |
| 2026-05-06 01:13 | 50.57329 | -0.11686 | 23280 ft | 463 kts | 146° |
| 2026-05-06 01:14 | 50.51924 | -0.06048 | 24277 ft | 468 kts | 146° |
| 2026-05-06 01:14 | 50.49211 | -0.03222 | 24792 ft | 469 kts | 146° |
| 2026-05-06 01:14 | 50.46499 | -0.00401 | 25440 ft | 467 kts | 146° |
| 2026-05-06 01:15 | 50.43810 | 0.02392 | 25871 ft | 470 kts | 146° |
| 2026-05-06 01:15 | 50.41077 | 0.05226 | 26327 ft | 473 kts | 146° |
| 2026-05-06 01:15 | 50.38313 | 0.08082 | 26748 ft | 476 kts | 146° |
| 2026-05-06 01:15 | 50.35541 | 0.10951 | 27238 ft | 478 kts | 146° |
| 2026-05-06 01:16 | 50.32770 | 0.13816 | 27784 ft | 478 kts | 146° |
| 2026-05-06 01:16 | 50.29981 | 0.16688 | 28207 ft | 481 kts | 146° |
| 2026-05-06 01:16 | 50.27177 | 0.19568 | 28603 ft | 483 kts | 146° |
| 2026-05-06 01:16 | 50.24359 | 0.22459 | 29001 ft | 486 kts | 146° |
| 2026-05-06 01:17 | 50.21522 | 0.25367 | 29409 ft | 488 kts | 146° |
| 2026-05-06 01:17 | 50.18680 | 0.28283 | 29848 ft | 488 kts | 146° |
| 2026-05-06 01:17 | 50.16803 | 0.30211 | 30191 ft | 487 kts | 146° |
| 2026-05-06 01:17 | 50.13033 | 0.34084 | 30900 ft | 482 kts | 146° |
| 2026-05-06 01:18 | 50.11185 | 0.35981 | 31243 ft | 480 kts | 146° |
| 2026-05-06 01:18 | 50.08409 | 0.38829 | 31762 ft | 476 kts | 146° |
| 2026-05-06 01:18 | 50.05652 | 0.41653 | 32257 ft | 473 kts | 146° |
| 2026-05-06 01:18 | 50.02911 | 0.44457 | 32678 ft | 471 kts | 147° |
| 2026-05-06 01:19 | 50.00181 | 0.47244 | 33148 ft | 467 kts | 146° |
| 2026-05-06 01:19 | 49.97472 | 0.50006 | 33704 ft | 463 kts | 147° |
| 2026-05-06 01:19 | 49.94782 | 0.52743 | 34067 ft | 461 kts | 146° |
| 2026-05-06 01:19 | 49.92093 | 0.55476 | 34242 ft | 463 kts | 146° |
| 2026-05-06 01:20 | 49.89392 | 0.58218 | 34384 ft | 465 kts | 146° |
| 2026-05-06 01:20 | 49.86679 | 0.60968 | 34566 ft | 466 kts | 147° |
| 2026-05-06 01:20 | 49.83959 | 0.63718 | 34743 ft | 468 kts | 147° |
| 2026-05-06 01:20 | 49.81213 | 0.66430 | 34890 ft | 470 kts | 148° |
| 2026-05-06 01:21 | 49.75644 | 0.71815 | 34910 ft | 479 kts | 148° |
| 2026-05-06 01:21 | 49.69982 | 0.77270 | 34905 ft | 478 kts | 148° |
| 2026-05-06 01:22 | 49.64351 | 0.82708 | 34906 ft | 476 kts | 148° |
| 2026-05-06 01:22 | 49.58734 | 0.88130 | 34906 ft | 476 kts | 148° |
| 2026-05-06 01:23 | 49.53110 | 0.93545 | 34900 ft | 479 kts | 148° |
| 2026-05-06 01:23 | 49.47440 | 0.98992 | 34889 ft | 480 kts | 148° |
| 2026-05-06 01:24 | 49.41795 | 1.04398 | 34883 ft | 480 kts | 148° |
| 2026-05-06 01:24 | 49.36129 | 1.09808 | 34885 ft | 479 kts | 148° |
| 2026-05-06 01:25 | 49.30462 | 1.15203 | 34884 ft | 479 kts | 148° |
| 2026-05-06 01:25 | 49.24765 | 1.20613 | 34885 ft | 483 kts | 148° |
| 2026-05-06 01:26 | 49.19057 | 1.26019 | 34879 ft | 482 kts | 148° |
| 2026-05-06 01:26 | 49.13341 | 1.31417 | 34884 ft | 483 kts | 148° |
| 2026-05-06 01:27 | 49.07661 | 1.36766 | 34888 ft | 480 kts | 148° |
| 2026-05-06 01:27 | 49.01985 | 1.42098 | 34881 ft | 479 kts | 148° |
| 2026-05-06 01:28 | 48.96303 | 1.47421 | 34874 ft | 479 kts | 148° |
| 2026-05-06 01:28 | 48.90609 | 1.52740 | 34870 ft | 479 kts | 148° |
| 2026-05-06 01:29 | 48.84969 | 1.57994 | 34864 ft | 478 kts | 148° |
| 2026-05-06 01:29 | 48.79290 | 1.63271 | 34853 ft | 478 kts | 148° |
| 2026-05-06 01:30 | 48.73612 | 1.68532 | 34854 ft | 478 kts | 148° |
| 2026-05-06 01:30 | 48.67925 | 1.73789 | 34850 ft | 479 kts | 148° |
| 2026-05-06 01:31 | 48.62226 | 1.79042 | 34843 ft | 479 kts | 148° |
| 2026-05-06 01:31 | 48.56513 | 1.84295 | 34840 ft | 479 kts | 149° |
| 2026-05-06 01:32 | 48.50831 | 1.89504 | 34841 ft | 477 kts | 149° |
| 2026-05-06 01:32 | 48.45185 | 1.94665 | 34830 ft | 477 kts | 149° |
| 2026-05-06 01:33 | 48.39505 | 1.99845 | 34833 ft | 478 kts | 149° |
| 2026-05-06 01:33 | 48.33803 | 2.05030 | 34827 ft | 480 kts | 149° |
| 2026-05-06 01:34 | 48.27816 | 2.09474 | 34823 ft | 480 kts | 162° |
| 2026-05-06 01:34 | 48.21298 | 2.11596 | 34828 ft | 480 kts | 171° |
| 2026-05-06 01:35 | 48.14668 | 2.12989 | 34832 ft | 480 kts | 174° |
| 2026-05-06 01:35 | 48.08049 | 2.13544 | 34845 ft | 480 kts | 178° |
| 2026-05-06 01:36 | 48.01368 | 2.13912 | 34853 ft | 480 kts | 178° |
| 2026-05-06 01:36 | 47.94689 | 2.14274 | 34858 ft | 480 kts | 178° |
| 2026-05-06 01:37 | 47.88009 | 2.14655 | 34858 ft | 480 kts | 178° |
| 2026-05-06 01:37 | 47.81318 | 2.15046 | 34860 ft | 480 kts | 178° |
| 2026-05-06 01:38 | 47.74684 | 2.15435 | 34812 ft | 480 kts | 178° |
| 2026-05-06 01:38 | 47.68007 | 2.15825 | 34810 ft | 480 kts | 178° |
| 2026-05-06 01:39 | 47.61334 | 2.16212 | 34812 ft | 480 kts | 178° |
| 2026-05-06 01:39 | 47.54655 | 2.16599 | 34815 ft | 480 kts | 178° |
| 2026-05-06 01:40 | 47.47982 | 2.16984 | 34818 ft | 480 kts | 178° |
| 2026-05-06 01:40 | 47.41304 | 2.17369 | 34821 ft | 480 kts | 178° |
| 2026-05-06 01:41 | 47.34620 | 2.17753 | 34826 ft | 480 kts | 178° |
| 2026-05-06 01:41 | 47.27933 | 2.18137 | 34839 ft | 480 kts | 178° |
| 2026-05-06 01:42 | 47.21290 | 2.18517 | 34836 ft | 480 kts | 178° |
| 2026-05-06 01:42 | 47.14612 | 2.18898 | 34841 ft | 480 kts | 178° |
| 2026-05-06 01:43 | 47.07995 | 2.20112 | 34854 ft | 481 kts | 166° |
| 2026-05-06 01:43 | 47.01672 | 2.23340 | 34857 ft | 482 kts | 160° |
| 2026-05-06 01:44 | 46.95441 | 2.26999 | 34855 ft | 482 kts | 159° |
| 2026-05-06 01:44 | 46.89225 | 2.30695 | 34857 ft | 481 kts | 159° |
| 2026-05-06 01:45 | 46.83142 | 2.34765 | 34856 ft | 482 kts | 150° |
| 2026-05-06 01:45 | 46.77482 | 2.39912 | 34858 ft | 483 kts | 148° |
| 2026-05-06 01:46 | 46.71859 | 2.45286 | 34850 ft | 482 kts | 148° |
| 2026-05-06 01:46 | 46.66255 | 2.50658 | 34858 ft | 481 kts | 148° |
| 2026-05-06 01:47 | 46.60684 | 2.55958 | 34863 ft | 481 kts | 149° |
| 2026-05-06 01:47 | 46.55076 | 2.61262 | 34857 ft | 481 kts | 149° |
| 2026-05-06 01:48 | 46.49462 | 2.66554 | 34855 ft | 481 kts | 149° |
| 2026-05-06 01:48 | 46.43854 | 2.71827 | 34862 ft | 480 kts | 149° |
| 2026-05-06 01:49 | 46.38233 | 2.77100 | 34859 ft | 480 kts | 149° |
| 2026-05-06 01:49 | 46.32613 | 2.82360 | 34854 ft | 480 kts | 149° |
| 2026-05-06 01:50 | 46.27001 | 2.87600 | 34869 ft | 480 kts | 149° |
| 2026-05-06 01:50 | 46.21384 | 2.92831 | 34860 ft | 480 kts | 149° |
| 2026-05-06 01:51 | 46.15762 | 2.98054 | 34862 ft | 480 kts | 149° |
| 2026-05-06 01:51 | 46.10135 | 3.03269 | 34864 ft | 480 kts | 150° |
| 2026-05-06 01:52 | 46.04515 | 3.08464 | 34865 ft | 480 kts | 150° |
| 2026-05-06 01:52 | 45.98907 | 3.13569 | 34873 ft | 479 kts | 153° |
| 2026-05-06 01:53 | 45.92788 | 3.17117 | 34871 ft | 472 kts | 169° |
| 2026-05-06 01:53 | 45.86316 | 3.18019 | 34887 ft | 466 kts | 181° |
| 2026-05-06 01:54 | 45.79836 | 3.17959 | 34886 ft | 466 kts | 182° |
| 2026-05-06 01:54 | 45.73346 | 3.17778 | 34887 ft | 466 kts | 182° |
| 2026-05-06 01:55 | 45.66856 | 3.17642 | 34867 ft | 466 kts | 182° |
| 2026-05-06 01:55 | 45.60374 | 3.17546 | 34868 ft | 466 kts | 182° |
| 2026-05-06 01:56 | 45.53922 | 3.17464 | 34873 ft | 466 kts | 182° |
| 2026-05-06 01:56 | 45.47444 | 3.17381 | 34868 ft | 465 kts | 182° |
| 2026-05-06 01:57 | 45.40972 | 3.17295 | 34880 ft | 465 kts | 182° |
| 2026-05-06 01:57 | 45.34495 | 3.17211 | 34873 ft | 465 kts | 182° |
| 2026-05-06 01:58 | 45.28019 | 3.17123 | 34884 ft | 465 kts | 182° |
| 2026-05-06 01:58 | 45.21535 | 3.17035 | 34879 ft | 465 kts | 182° |
| 2026-05-06 01:59 | 45.15067 | 3.16950 | 34885 ft | 465 kts | 182° |
| 2026-05-06 01:59 | 45.08588 | 3.16867 | 34899 ft | 465 kts | 182° |
| 2026-05-06 02:00 | 45.02153 | 3.16784 | 34894 ft | 465 kts | 182° |
| 2026-05-06 02:00 | 44.95674 | 3.16698 | 34898 ft | 465 kts | 182° |
| 2026-05-06 02:01 | 44.89200 | 3.16619 | 34907 ft | 465 kts | 183° |
| 2026-05-06 02:01 | 44.82729 | 3.16531 | 34906 ft | 465 kts | 183° |
| 2026-05-06 02:02 | 44.76254 | 3.16444 | 34906 ft | 465 kts | 183° |
| 2026-05-06 02:02 | 44.69785 | 3.16359 | 34903 ft | 465 kts | 183° |
| 2026-05-06 02:03 | 44.63353 | 3.16276 | 34916 ft | 465 kts | 183° |
| 2026-05-06 02:03 | 44.56878 | 3.16235 | 34900 ft | 465 kts | 182° |
| 2026-05-06 02:04 | 44.50394 | 3.16386 | 34914 ft | 467 kts | 179° |
| 2026-05-06 02:04 | 44.43993 | 3.18051 | 34918 ft | 473 kts | 164° |
| 2026-05-06 02:05 | 44.38091 | 3.22281 | 34917 ft | 481 kts | 151° |
| 2026-05-06 02:05 | 44.32518 | 3.27520 | 34917 ft | 484 kts | 149° |
| 2026-05-06 02:06 | 44.27916 | 3.31981 | 34914 ft | 484 kts | 149° |
| 2026-05-06 02:06 | 44.22360 | 3.37313 | 34911 ft | 484 kts | 150° |
| 2026-05-06 02:07 | 44.16784 | 3.42594 | 34900 ft | 484 kts | 150° |
| 2026-05-06 02:07 | 44.11197 | 3.47850 | 34912 ft | 485 kts | 150° |
| 2026-05-06 02:08 | 44.05601 | 3.53102 | 34902 ft | 485 kts | 150° |
| 2026-05-06 02:08 | 44.00001 | 3.58346 | 34901 ft | 485 kts | 150° |
| 2026-05-06 02:09 | 43.94393 | 3.63589 | 34909 ft | 486 kts | 151° |
| 2026-05-06 02:09 | 43.88805 | 3.68799 | 34894 ft | 488 kts | 151° |
| 2026-05-06 02:10 | 43.83166 | 3.74046 | 34898 ft | 488 kts | 151° |
| 2026-05-06 02:10 | 43.77525 | 3.79284 | 34905 ft | 488 kts | 151° |
| 2026-05-06 02:11 | 43.71886 | 3.84510 | 34895 ft | 487 kts | 152° |
| 2026-05-06 02:11 | 43.66267 | 3.89703 | 34897 ft | 486 kts | 152° |
| 2026-05-06 02:12 | 43.60639 | 3.94890 | 34895 ft | 486 kts | 152° |
| 2026-05-06 02:12 | 43.54754 | 3.99315 | 34868 ft | 478 kts | 161° |
| 2026-05-06 02:13 | 43.48680 | 4.03076 | 34884 ft | 479 kts | 162° |
| 2026-05-06 02:13 | 43.42602 | 4.06710 | 34884 ft | 479 kts | 162° |
| 2026-05-06 02:14 | 43.36483 | 4.10366 | 34885 ft | 479 kts | 162° |
| 2026-05-06 02:14 | 43.30364 | 4.14033 | 34880 ft | 480 kts | 163° |
| 2026-05-06 02:15 | 43.24247 | 4.17700 | 34874 ft | 480 kts | 163° |
| 2026-05-06 02:15 | 43.18130 | 4.21361 | 34875 ft | 479 kts | 163° |
| 2026-05-06 02:16 | 43.12038 | 4.25000 | 34863 ft | 477 kts | 163° |
| 2026-05-06 02:16 | 43.05940 | 4.28628 | 34867 ft | 478 kts | 163° |
| 2026-05-06 02:17 | 42.99843 | 4.32249 | 34870 ft | 478 kts | 163° |
| 2026-05-06 02:17 | 42.93743 | 4.35865 | 34865 ft | 478 kts | 163° |
| 2026-05-06 02:18 | 42.87638 | 4.39477 | 34872 ft | 478 kts | 163° |
| 2026-05-06 02:18 | 42.81530 | 4.43082 | 34869 ft | 478 kts | 163° |
| 2026-05-06 02:19 | 42.75418 | 4.46682 | 34872 ft | 478 kts | 163° |
| 2026-05-06 02:19 | 42.69342 | 4.50253 | 34872 ft | 478 kts | 163° |
| 2026-05-06 02:20 | 42.60173 | 4.55628 | 34879 ft | 478 kts | 163° |
| 2026-05-06 02:21 | 42.54066 | 4.59199 | 34867 ft | 477 kts | 163° |
| 2026-05-06 02:21 | 42.47975 | 4.62755 | 34873 ft | 475 kts | 164° |
| 2026-05-06 02:22 | 42.41900 | 4.66291 | 34878 ft | 475 kts | 164° |
| 2026-05-06 02:22 | 42.35825 | 4.69818 | 34878 ft | 475 kts | 164° |
| 2026-05-06 02:23 | 42.29754 | 4.73336 | 34864 ft | 475 kts | 164° |
| 2026-05-06 02:23 | 42.23715 | 4.76830 | 34881 ft | 474 kts | 165° |
| 2026-05-06 02:24 | 42.17640 | 4.80337 | 34883 ft | 474 kts | 165° |
| 2026-05-06 02:24 | 42.11578 | 4.83829 | 34882 ft | 474 kts | 165° |
| 2026-05-06 02:25 | 42.05506 | 4.87320 | 34882 ft | 474 kts | 165° |
| 2026-05-06 02:25 | 41.99444 | 4.90797 | 34886 ft | 473 kts | 165° |
| 2026-05-06 02:26 | 41.93383 | 4.94267 | 35126 ft | 471 kts | 165° |
| 2026-05-06 02:26 | 41.90378 | 4.95988 | 35478 ft | 467 kts | 165° |
| 2026-05-06 02:26 | 41.87398 | 4.97693 | 35845 ft | 464 kts | 165° |
| 2026-05-06 02:26 | 41.84431 | 4.99386 | 36069 ft | 464 kts | 165° |
| 2026-05-06 02:27 | 41.81444 | 5.01011 | 36226 ft | 461 kts | 168° |
| 2026-05-06 02:27 | 41.78403 | 5.02350 | 36410 ft | 459 kts | 170° |
| 2026-05-06 02:27 | 41.75353 | 5.03616 | 36602 ft | 458 kts | 170° |
| 2026-05-06 02:27 | 41.72298 | 5.04846 | 36787 ft | 458 kts | 171° |
| 2026-05-06 02:28 | 41.69267 | 5.06046 | 36883 ft | 460 kts | 171° |
| 2026-05-06 02:28 | 41.63071 | 5.08484 | 36884 ft | 466 kts | 171° |
| 2026-05-06 02:29 | 41.56854 | 5.10943 | 36890 ft | 465 kts | 171° |
| 2026-05-06 02:29 | 41.50648 | 5.13404 | 36889 ft | 465 kts | 171° |
| 2026-05-06 02:30 | 41.44474 | 5.15847 | 36870 ft | 465 kts | 171° |
| 2026-05-06 02:30 | 41.38261 | 5.18299 | 36895 ft | 466 kts | 171° |
| 2026-05-06 02:31 | 41.32047 | 5.20747 | 36893 ft | 466 kts | 171° |
| 2026-05-06 02:31 | 41.25824 | 5.23193 | 36897 ft | 466 kts | 171° |
| 2026-05-06 02:32 | 41.19605 | 5.25633 | 36895 ft | 466 kts | 171° |
| 2026-05-06 02:32 | 41.13378 | 5.28071 | 36898 ft | 466 kts | 171° |
| 2026-05-06 02:33 | 41.07155 | 5.30503 | 36898 ft | 466 kts | 171° |
| 2026-05-06 02:33 | 41.05097 | 5.31306 | 36896 ft | 466 kts | 171° |
| 2026-05-06 02:34 | 40.94722 | 5.35347 | 36887 ft | 464 kts | 170° |
| 2026-05-06 02:34 | 40.88520 | 5.37757 | 36906 ft | 464 kts | 170° |
| 2026-05-06 02:35 | 40.82326 | 5.40158 | 36894 ft | 464 kts | 171° |
| 2026-05-06 02:35 | 40.76172 | 5.42538 | 36897 ft | 464 kts | 170° |
| 2026-05-06 02:36 | 40.69963 | 5.44934 | 36903 ft | 465 kts | 170° |
| 2026-05-06 02:36 | 40.63754 | 5.47328 | 36903 ft | 465 kts | 170° |
| 2026-05-06 02:37 | 40.57542 | 5.49718 | 36906 ft | 465 kts | 170° |
| 2026-05-06 02:37 | 40.51332 | 5.52103 | 36906 ft | 465 kts | 170° |
| 2026-05-06 02:38 | 40.45122 | 5.54482 | 36910 ft | 465 kts | 170° |
| 2026-05-06 02:38 | 40.38916 | 5.56856 | 36908 ft | 464 kts | 170° |
| 2026-05-06 02:39 | 40.32745 | 5.59212 | 36896 ft | 464 kts | 170° |
| 2026-05-06 02:39 | 40.26530 | 5.61578 | 36911 ft | 466 kts | 170° |
| 2026-05-06 02:40 | 40.20287 | 5.63952 | 36915 ft | 466 kts | 170° |
| 2026-05-06 02:40 | 40.14054 | 5.66319 | 36914 ft | 466 kts | 170° |
| 2026-05-06 02:41 | 40.07813 | 5.68683 | 36918 ft | 468 kts | 170° |
| 2026-05-06 02:41 | 40.01534 | 5.71055 | 36908 ft | 469 kts | 170° |
| 2026-05-06 02:42 | 39.95256 | 5.73424 | 36919 ft | 471 kts | 170° |
| 2026-05-06 02:42 | 39.88997 | 5.75783 | 36919 ft | 471 kts | 170° |
| 2026-05-06 02:43 | 39.82692 | 5.78154 | 36932 ft | 471 kts | 169° |
| 2026-05-06 02:43 | 39.76380 | 5.80523 | 36917 ft | 471 kts | 169° |
| 2026-05-06 02:44 | 39.70077 | 5.82884 | 36924 ft | 471 kts | 169° |
| 2026-05-06 02:44 | 39.63813 | 5.85225 | 36915 ft | 471 kts | 169° |
| 2026-05-06 02:45 | 39.57512 | 5.87576 | 36920 ft | 471 kts | 169° |
| 2026-05-06 02:45 | 39.51218 | 5.89920 | 36927 ft | 470 kts | 169° |
| 2026-05-06 02:46 | 39.44929 | 5.92258 | 36925 ft | 470 kts | 169° |
| 2026-05-06 02:46 | 39.38641 | 5.94590 | 36926 ft | 470 kts | 169° |
| 2026-05-06 02:47 | 39.32353 | 5.96919 | 36934 ft | 470 kts | 169° |
| 2026-05-06 02:47 | 39.26062 | 5.99244 | 36932 ft | 470 kts | 169° |
| 2026-05-06 02:48 | 39.19774 | 6.01564 | 36935 ft | 470 kts | 169° |
| 2026-05-06 02:48 | 39.13484 | 6.03879 | 36936 ft | 471 kts | 169° |
| 2026-05-06 02:49 | 39.07227 | 6.06179 | 36937 ft | 471 kts | 169° |
| 2026-05-06 02:49 | 39.00878 | 6.08462 | 36936 ft | 469 kts | 172° |
| 2026-05-06 02:50 | 38.94535 | 6.09945 | 36939 ft | 466 kts | 176° |
| 2026-05-06 02:50 | 38.88118 | 6.11233 | 36944 ft | 467 kts | 176° |
| 2026-05-06 02:51 | 38.81692 | 6.12486 | 36943 ft | 467 kts | 176° |
| 2026-05-06 02:51 | 38.75266 | 6.13747 | 36944 ft | 467 kts | 176° |
| 2026-05-06 02:52 | 38.68845 | 6.15016 | 36947 ft | 467 kts | 177° |
| 2026-05-06 02:52 | 38.63502 | 6.16071 | 36947 ft | 466 kts | 177° |
| 2026-05-06 02:53 | 38.57082 | 6.17338 | 36952 ft | 466 kts | 177° |
| 2026-05-06 02:53 | 38.49631 | 6.18804 | 36949 ft | 466 kts | 177° |
| 2026-05-06 02:54 | 38.44253 | 6.19862 | 36947 ft | 466 kts | 178° |
| 2026-05-06 02:54 | 38.37882 | 6.21111 | 36947 ft | 466 kts | 178° |
| 2026-05-06 02:55 | 38.31467 | 6.22366 | 36943 ft | 466 kts | 178° |
| 2026-05-06 02:55 | 38.25059 | 6.23618 | 36947 ft | 466 kts | 178° |
| 2026-05-06 02:56 | 38.18647 | 6.24868 | 36951 ft | 466 kts | 178° |
| 2026-05-06 02:56 | 38.12235 | 6.26117 | 36947 ft | 466 kts | 178° |
| 2026-05-06 02:57 | 38.05819 | 6.27364 | 36944 ft | 466 kts | 178° |
| 2026-05-06 02:57 | 37.99399 | 6.28610 | 36952 ft | 467 kts | 178° |
| 2026-05-06 02:58 | 37.92986 | 6.29849 | 36940 ft | 470 kts | 178° |
| 2026-05-06 02:58 | 37.86517 | 6.31100 | 36950 ft | 470 kts | 178° |
| 2026-05-06 02:59 | 37.80054 | 6.32349 | 36932 ft | 470 kts | 178° |
| 2026-05-06 02:59 | 37.73581 | 6.33596 | 36939 ft | 472 kts | 179° |
| 2026-05-06 03:00 | 37.67084 | 6.34843 | 36938 ft | 473 kts | 179° |
| 2026-05-06 03:00 | 37.60575 | 6.36094 | 36940 ft | 473 kts | 179° |
| 2026-05-06 03:01 | 37.54070 | 6.37341 | 36920 ft | 473 kts | 179° |
| 2026-05-06 03:01 | 37.47579 | 6.38581 | 36933 ft | 476 kts | 179° |
| 2026-05-06 03:02 | 37.41027 | 6.39831 | 36934 ft | 476 kts | 179° |
| 2026-05-06 03:02 | 37.34470 | 6.41082 | 36934 ft | 476 kts | 179° |
| 2026-05-06 03:03 | 37.27909 | 6.42332 | 36926 ft | 477 kts | 179° |
| 2026-05-06 03:03 | 37.21330 | 6.43579 | 36932 ft | 479 kts | 179° |
| 2026-05-06 03:04 | 37.14748 | 6.44828 | 36939 ft | 479 kts | 179° |
| 2026-05-06 03:04 | 37.08147 | 6.46078 | 36937 ft | 479 kts | 179° |
| 2026-05-06 03:05 | 37.01551 | 6.47323 | 36937 ft | 481 kts | 179° |
| 2026-05-06 03:05 | 36.94946 | 6.48567 | 36933 ft | 483 kts | 179° |
| 2026-05-06 03:06 | 36.88293 | 6.49821 | 36931 ft | 483 kts | 179° |
| 2026-05-06 03:06 | 36.81652 | 6.51071 | 36933 ft | 483 kts | 179° |
| 2026-05-06 03:07 | 36.74988 | 6.52322 | 36949 ft | 484 kts | 179° |
| 2026-05-06 03:07 | 36.68319 | 6.53569 | 36944 ft | 485 kts | 179° |
| 2026-05-06 03:08 | 36.61638 | 6.54820 | 36950 ft | 485 kts | 179° |
| 2026-05-06 03:08 | 36.55012 | 6.56056 | 36947 ft | 485 kts | 179° |
| 2026-05-06 03:09 | 36.48350 | 6.57297 | 36961 ft | 484 kts | 179° |
| 2026-05-06 03:09 | 36.41679 | 6.58539 | 36964 ft | 484 kts | 179° |
| 2026-05-06 03:10 | 36.35006 | 6.59778 | 36966 ft | 484 kts | 179° |
| 2026-05-06 03:10 | 36.28335 | 6.61018 | 36967 ft | 484 kts | 180° |
| 2026-05-06 03:11 | 36.21730 | 6.62585 | 36967 ft | 487 kts | 176° |
| 2026-05-06 03:11 | 36.15095 | 6.64390 | 36964 ft | 487 kts | 176° |
| 2026-05-06 03:12 | 36.08461 | 6.66154 | 36961 ft | 487 kts | 176° |
| 2026-05-06 03:12 | 36.01823 | 6.67863 | 36961 ft | 487 kts | 177° |
| 2026-05-06 03:13 | 35.95226 | 6.69539 | 36955 ft | 487 kts | 177° |
| 2026-05-06 03:13 | 35.88584 | 6.71219 | 36955 ft | 487 kts | 177° |
| 2026-05-06 03:14 | 35.81942 | 6.72901 | 36952 ft | 487 kts | 177° |
| 2026-05-06 03:14 | 35.75300 | 6.74581 | 36952 ft | 487 kts | 177° |
| 2026-05-06 03:15 | 35.68661 | 6.76259 | 36953 ft | 487 kts | 177° |
| 2026-05-06 03:15 | 35.62018 | 6.77935 | 36955 ft | 487 kts | 177° |
| 2026-05-06 03:16 | 35.55380 | 6.79606 | 36921 ft | 487 kts | 178° |
| 2026-05-06 03:16 | 35.48725 | 6.81275 | 36951 ft | 490 kts | 178° |
| 2026-05-06 03:17 | 35.42027 | 6.82955 | 36948 ft | 491 kts | 178° |
| 2026-05-06 03:17 | 35.35384 | 6.84620 | 36940 ft | 490 kts | 178° |
| 2026-05-06 03:18 | 35.28692 | 6.86294 | 36927 ft | 491 kts | 178° |
| 2026-05-06 03:18 | 35.21983 | 6.87968 | 36933 ft | 492 kts | 178° |
| 2026-05-06 03:19 | 35.15261 | 6.89643 | 36915 ft | 492 kts | 178° |
| 2026-05-06 03:19 | 35.08540 | 6.91317 | 36916 ft | 493 kts | 178° |
| 2026-05-06 03:20 | 34.98452 | 6.93823 | 36888 ft | 494 kts | 179° |
| 2026-05-06 03:20 | 34.91706 | 6.95494 | 36866 ft | 495 kts | 179° |
| 2026-05-06 03:21 | 34.84955 | 6.97160 | 36867 ft | 495 kts | 179° |
| 2026-05-06 03:21 | 34.78205 | 6.98826 | 36805 ft | 495 kts | 179° |
| 2026-05-06 03:22 | 34.71446 | 7.00533 | 36821 ft | 497 kts | 179° |
| 2026-05-06 03:22 | 34.64701 | 7.02250 | 36820 ft | 498 kts | 179° |
| 2026-05-06 03:23 | 34.57928 | 7.03968 | 36796 ft | 497 kts | 179° |
| 2026-05-06 03:23 | 34.51151 | 7.05678 | 36767 ft | 497 kts | 179° |
| 2026-05-06 03:24 | 34.44379 | 7.07382 | 36782 ft | 497 kts | 179° |
| 2026-05-06 03:24 | 34.37609 | 7.09082 | 36777 ft | 497 kts | 179° |
| 2026-05-06 03:25 | 34.30831 | 7.10782 | 36773 ft | 497 kts | 179° |
| 2026-05-06 03:25 | 34.24047 | 7.12480 | 36768 ft | 497 kts | 179° |
| 2026-05-06 03:26 | 34.17267 | 7.14174 | 36772 ft | 498 kts | 179° |
| 2026-05-06 03:26 | 34.10480 | 7.15867 | 36778 ft | 498 kts | 179° |
| 2026-05-06 03:27 | 34.03691 | 7.17559 | 36779 ft | 498 kts | 179° |
| 2026-05-06 03:27 | 33.96936 | 7.19239 | 36776 ft | 499 kts | 179° |
| 2026-05-06 03:28 | 33.90127 | 7.20929 | 36779 ft | 499 kts | 179° |
| 2026-05-06 03:28 | 33.83324 | 7.22616 | 36770 ft | 499 kts | 179° |
| 2026-05-06 03:29 | 33.76521 | 7.24301 | 36770 ft | 499 kts | 179° |
| 2026-05-06 03:29 | 33.69720 | 7.25982 | 36772 ft | 499 kts | 179° |
| 2026-05-06 03:30 | 33.62953 | 7.27651 | 36771 ft | 500 kts | 179° |
| 2026-05-06 03:30 | 33.56144 | 7.29329 | 36771 ft | 500 kts | 179° |
| 2026-05-06 03:31 | 33.49326 | 7.31006 | 36773 ft | 500 kts | 179° |
| 2026-05-06 03:31 | 33.42515 | 7.32678 | 36771 ft | 500 kts | 179° |
| 2026-05-06 03:32 | 33.35701 | 7.34349 | 36768 ft | 499 kts | 179° |
| 2026-05-06 03:32 | 33.28889 | 7.36016 | 36769 ft | 500 kts | 179° |
| 2026-05-06 03:33 | 33.22065 | 7.37683 | 36762 ft | 499 kts | 179° |
| 2026-05-06 03:33 | 33.15298 | 7.39334 | 36764 ft | 499 kts | 179° |
| 2026-05-06 03:34 | 33.08489 | 7.40992 | 36763 ft | 499 kts | 179° |
| 2026-05-06 03:34 | 33.01678 | 7.42648 | 36756 ft | 499 kts | 179° |
| 2026-05-06 03:35 | 32.94869 | 7.44302 | 36757 ft | 499 kts | 179° |
| 2026-05-06 03:35 | 32.88059 | 7.45952 | 36748 ft | 500 kts | 179° |
| 2026-05-06 03:36 | 32.81248 | 7.47601 | 36743 ft | 500 kts | 179° |
| 2026-05-06 03:36 | 32.74428 | 7.49250 | 36743 ft | 500 kts | 179° |
| 2026-05-06 03:37 | 32.67614 | 7.50894 | 36738 ft | 500 kts | 179° |
| 2026-05-06 03:37 | 32.60833 | 7.52527 | 36734 ft | 501 kts | 179° |
| 2026-05-06 03:38 | 32.53996 | 7.54170 | 36731 ft | 501 kts | 179° |
| 2026-05-06 03:38 | 32.47164 | 7.55812 | 36724 ft | 501 kts | 179° |
| 2026-05-06 03:39 | 32.40331 | 7.57452 | 36723 ft | 501 kts | 179° |
| 2026-05-06 03:39 | 32.33483 | 7.59091 | 36716 ft | 502 kts | 178° |
| 2026-05-06 03:40 | 32.26625 | 7.60728 | 36712 ft | 504 kts | 178° |
| 2026-05-06 03:40 | 32.20912 | 7.62092 | 36715 ft | 504 kts | 178° |
| 2026-05-06 03:41 | 32.14036 | 7.63733 | 36709 ft | 504 kts | 178° |
| 2026-05-06 03:41 | 32.07154 | 7.65371 | 36703 ft | 504 kts | 178° |
| 2026-05-06 03:42 | 32.00284 | 7.67005 | 36704 ft | 504 kts | 178° |
| 2026-05-06 03:42 | 31.93414 | 7.68636 | 36703 ft | 504 kts | 178° |
| 2026-05-06 03:43 | 31.86527 | 7.70267 | 36700 ft | 504 kts | 178° |
| 2026-05-06 03:43 | 31.79654 | 7.71893 | 36694 ft | 503 kts | 178° |
| 2026-05-06 03:44 | 31.72798 | 7.73518 | 36700 ft | 503 kts | 178° |
| 2026-05-06 03:44 | 31.65936 | 7.75178 | 36711 ft | 503 kts | 178° |
| 2026-05-06 03:45 | 31.59088 | 7.76841 | 36709 ft | 503 kts | 178° |
| 2026-05-06 03:45 | 31.52233 | 7.78498 | 36703 ft | 503 kts | 178° |
| 2026-05-06 03:46 | 31.45434 | 7.80137 | 36709 ft | 502 kts | 178° |
| 2026-05-06 03:46 | 31.38594 | 7.81781 | 36708 ft | 502 kts | 178° |
| 2026-05-06 03:47 | 31.31756 | 7.83422 | 36705 ft | 502 kts | 178° |
| 2026-05-06 03:47 | 31.24915 | 7.85061 | 36700 ft | 502 kts | 178° |
| 2026-05-06 03:48 | 31.18080 | 7.86697 | 36706 ft | 501 kts | 178° |
| 2026-05-06 03:48 | 31.11245 | 7.88331 | 36705 ft | 501 kts | 178° |
| 2026-05-06 03:49 | 31.04405 | 7.89963 | 36711 ft | 501 kts | 178° |
| 2026-05-06 03:49 | 30.97577 | 7.91591 | 36703 ft | 501 kts | 178° |
| 2026-05-06 03:50 | 30.90729 | 7.93220 | 36710 ft | 502 kts | 178° |
| 2026-05-06 03:50 | 30.83882 | 7.94847 | 36711 ft | 502 kts | 178° |
| 2026-05-06 03:51 | 30.77041 | 7.96470 | 36711 ft | 502 kts | 178° |
| 2026-05-06 03:51 | 30.70194 | 7.98092 | 36694 ft | 502 kts | 177° |
| 2026-05-06 03:52 | 30.63373 | 7.99705 | 36716 ft | 504 kts | 177° |
| 2026-05-06 03:52 | 30.56508 | 8.01327 | 36716 ft | 504 kts | 177° |
| 2026-05-06 03:53 | 30.49635 | 8.02949 | 36712 ft | 504 kts | 177° |
| 2026-05-06 03:53 | 30.42767 | 8.04568 | 36718 ft | 504 kts | 177° |
| 2026-05-06 03:54 | 30.35897 | 8.06184 | 36726 ft | 503 kts | 177° |
| 2026-05-06 03:54 | 30.29029 | 8.07798 | 36725 ft | 503 kts | 177° |
| 2026-05-06 03:55 | 30.22159 | 8.09410 | 36732 ft | 504 kts | 177° |
| 2026-05-06 03:55 | 30.15289 | 8.11019 | 36730 ft | 503 kts | 177° |
| 2026-05-06 03:56 | 30.08426 | 8.12625 | 36731 ft | 502 kts | 177° |
| 2026-05-06 03:56 | 30.01569 | 8.14234 | 36739 ft | 503 kts | 177° |
| 2026-05-06 03:57 | 29.94704 | 8.15869 | 36742 ft | 504 kts | 177° |
| 2026-05-06 03:57 | 29.87888 | 8.17494 | 36748 ft | 504 kts | 177° |
| 2026-05-06 03:58 | 29.81019 | 8.19124 | 36743 ft | 504 kts | 176° |
| 2026-05-06 03:58 | 29.74150 | 8.20749 | 36754 ft | 504 kts | 176° |
| 2026-05-06 03:59 | 29.67285 | 8.22371 | 36758 ft | 503 kts | 176° |
| 2026-05-06 03:59 | 29.60421 | 8.23990 | 36758 ft | 503 kts | 176° |
| 2026-05-06 04:00 | 29.53560 | 8.25607 | 36757 ft | 504 kts | 176° |
| 2026-05-06 04:00 | 29.46693 | 8.27222 | 36760 ft | 503 kts | 176° |
| 2026-05-06 04:01 | 29.39867 | 8.28826 | 36762 ft | 503 kts | 176° |
| 2026-05-06 04:01 | 29.32997 | 8.30439 | 36766 ft | 503 kts | 176° |
| 2026-05-06 04:02 | 29.26131 | 8.32048 | 36751 ft | 503 kts | 176° |
| 2026-05-06 04:02 | 29.19264 | 8.33655 | 36768 ft | 504 kts | 176° |
| 2026-05-06 04:03 | 29.12388 | 8.35262 | 36772 ft | 504 kts | 176° |
| 2026-05-06 04:03 | 29.05548 | 8.36859 | 36779 ft | 504 kts | 176° |
| 2026-05-06 04:04 | 28.98674 | 8.38462 | 36752 ft | 504 kts | 176° |
| 2026-05-06 04:04 | 28.91793 | 8.40064 | 36780 ft | 504 kts | 176° |
| 2026-05-06 04:05 | 28.84911 | 8.41664 | 36791 ft | 504 kts | 176° |
| 2026-05-06 04:05 | 28.78036 | 8.43260 | 36788 ft | 504 kts | 176° |
| 2026-05-06 04:06 | 28.71155 | 8.44855 | 36800 ft | 505 kts | 176° |
| 2026-05-06 04:06 | 28.64269 | 8.46449 | 36797 ft | 505 kts | 176° |
| 2026-05-06 04:07 | 28.57382 | 8.48041 | 36807 ft | 505 kts | 176° |
| 2026-05-06 04:07 | 28.50542 | 8.49621 | 36810 ft | 505 kts | 176° |
| 2026-05-06 04:08 | 28.43656 | 8.51209 | 36813 ft | 505 kts | 176° |
| 2026-05-06 04:08 | 28.36771 | 8.52795 | 36807 ft | 505 kts | 176° |
| 2026-05-06 04:09 | 28.29884 | 8.54378 | 36813 ft | 505 kts | 176° |
| 2026-05-06 04:09 | 28.22990 | 8.55961 | 36816 ft | 505 kts | 176° |
| 2026-05-06 04:10 | 28.16094 | 8.57544 | 36816 ft | 505 kts | 176° |
| 2026-05-06 04:10 | 28.09206 | 8.59122 | 36787 ft | 505 kts | 176° |
| 2026-05-06 04:11 | 28.02316 | 8.60711 | 36816 ft | 506 kts | 175° |
| 2026-05-06 04:11 | 27.95419 | 8.62312 | 36814 ft | 506 kts | 175° |
| 2026-05-06 04:12 | 27.88513 | 8.63913 | 36815 ft | 506 kts | 175° |
| 2026-05-06 04:12 | 27.81655 | 8.65498 | 36820 ft | 506 kts | 175° |
| 2026-05-06 04:13 | 27.74746 | 8.67090 | 36821 ft | 507 kts | 175° |
| 2026-05-06 04:13 | 27.67830 | 8.68682 | 36820 ft | 507 kts | 175° |
| 2026-05-06 04:14 | 27.60909 | 8.70275 | 36822 ft | 507 kts | 175° |
| 2026-05-06 04:14 | 27.53990 | 8.71865 | 36820 ft | 507 kts | 175° |
| 2026-05-06 04:15 | 27.47073 | 8.73452 | 36822 ft | 507 kts | 175° |
| 2026-05-06 04:15 | 27.40158 | 8.75036 | 36819 ft | 507 kts | 175° |
| 2026-05-06 04:16 | 27.33241 | 8.76619 | 36821 ft | 507 kts | 175° |
| 2026-05-06 04:16 | 27.26367 | 8.78190 | 36821 ft | 507 kts | 175° |
| 2026-05-06 04:17 | 27.19449 | 8.79769 | 36807 ft | 507 kts | 175° |
| 2026-05-06 04:17 | 27.12521 | 8.81348 | 36819 ft | 508 kts | 175° |
| 2026-05-06 04:18 | 27.05586 | 8.82927 | 36839 ft | 508 kts | 175° |
| 2026-05-06 04:18 | 26.98658 | 8.84503 | 36842 ft | 508 kts | 175° |
| 2026-05-06 04:19 | 26.91726 | 8.86089 | 36843 ft | 508 kts | 175° |
| 2026-05-06 04:19 | 26.84788 | 8.87680 | 36848 ft | 509 kts | 175° |
| 2026-05-06 04:20 | 26.77848 | 8.89269 | 36855 ft | 509 kts | 175° |
| 2026-05-06 04:20 | 26.70907 | 8.90855 | 36842 ft | 509 kts | 175° |
| 2026-05-06 04:21 | 26.64008 | 8.92429 | 36843 ft | 509 kts | 175° |
| 2026-05-06 04:21 | 26.57066 | 8.94011 | 36842 ft | 509 kts | 175° |
| 2026-05-06 04:22 | 26.50108 | 8.95595 | 36856 ft | 509 kts | 175° |
| 2026-05-06 04:23 | 26.39680 | 8.97965 | 36861 ft | 510 kts | 175° |
| 2026-05-06 04:23 | 26.32735 | 8.99541 | 36867 ft | 509 kts | 175° |
| 2026-05-06 04:24 | 26.25834 | 9.01104 | 36856 ft | 510 kts | 175° |
| 2026-05-06 04:24 | 26.18874 | 9.02678 | 36886 ft | 511 kts | 175° |
| 2026-05-06 04:25 | 26.11910 | 9.04254 | 36882 ft | 511 kts | 175° |
| 2026-05-06 04:25 | 26.04950 | 9.05826 | 36898 ft | 510 kts | 175° |
| 2026-05-06 04:26 | 25.97995 | 9.07399 | 36892 ft | 510 kts | 175° |
| 2026-05-06 04:26 | 25.91035 | 9.08981 | 36901 ft | 510 kts | 175° |
| 2026-05-06 04:27 | 25.84068 | 9.10562 | 36907 ft | 512 kts | 175° |
| 2026-05-06 04:27 | 25.77088 | 9.12144 | 36901 ft | 512 kts | 176° |
| 2026-05-06 04:28 | 25.70104 | 9.13724 | 36911 ft | 512 kts | 175° |
| 2026-05-06 04:28 | 25.63115 | 9.15304 | 36911 ft | 512 kts | 175° |
| 2026-05-06 04:29 | 25.56132 | 9.16883 | 36919 ft | 512 kts | 175° |
| 2026-05-06 04:29 | 25.49149 | 9.18459 | 36922 ft | 512 kts | 175° |
| 2026-05-06 04:30 | 25.43343 | 9.19769 | 36929 ft | 512 kts | 175° |
| 2026-05-06 04:30 | 25.36363 | 9.21340 | 36933 ft | 512 kts | 175° |
| 2026-05-06 04:31 | 25.29377 | 9.22909 | 36944 ft | 513 kts | 175° |
| 2026-05-06 04:31 | 25.22382 | 9.24480 | 36941 ft | 513 kts | 175° |
| 2026-05-06 04:32 | 25.15398 | 9.26048 | 36938 ft | 513 kts | 175° |
| 2026-05-06 04:32 | 25.08401 | 9.27615 | 36938 ft | 513 kts | 175° |
| 2026-05-06 04:33 | 25.01414 | 9.29179 | 36925 ft | 512 kts | 175° |
| 2026-05-06 04:33 | 24.94441 | 9.30739 | 36937 ft | 511 kts | 175° |
| 2026-05-06 04:34 | 24.87477 | 9.32294 | 36939 ft | 511 kts | 175° |
| 2026-05-06 04:34 | 24.80508 | 9.33845 | 36929 ft | 511 kts | 175° |
| 2026-05-06 04:35 | 24.73544 | 9.35398 | 36933 ft | 511 kts | 175° |
| 2026-05-06 04:35 | 24.66561 | 9.36951 | 36920 ft | 514 kts | 175° |
| 2026-05-06 04:36 | 24.59534 | 9.38512 | 36937 ft | 516 kts | 175° |
| 2026-05-06 04:36 | 24.52494 | 9.40076 | 36945 ft | 516 kts | 175° |
| 2026-05-06 04:37 | 24.45458 | 9.41638 | 36960 ft | 516 kts | 175° |
| 2026-05-06 04:37 | 24.38461 | 9.43188 | 36960 ft | 516 kts | 175° |
| 2026-05-06 04:38 | 24.31432 | 9.44812 | 36961 ft | 520 kts | 171° |
| 2026-05-06 04:38 | 24.24700 | 9.47930 | 36962 ft | 531 kts | 156° |
| 2026-05-06 04:39 | 24.18268 | 9.51940 | 36956 ft | 532 kts | 154° |
| 2026-05-06 04:39 | 24.11901 | 9.56086 | 36942 ft | 533 kts | 154° |
| 2026-05-06 04:40 | 24.05521 | 9.60216 | 36921 ft | 533 kts | 154° |
| 2026-05-06 04:40 | 23.99105 | 9.64328 | 36904 ft | 535 kts | 154° |
| 2026-05-06 04:41 | 23.92667 | 9.68437 | 36897 ft | 536 kts | 154° |
| 2026-05-06 04:41 | 23.86229 | 9.72539 | 36895 ft | 536 kts | 154° |
| 2026-05-06 04:42 | 23.79792 | 9.76637 | 36886 ft | 536 kts | 154° |
| 2026-05-06 04:42 | 23.73350 | 9.80734 | 36882 ft | 536 kts | 154° |
| 2026-05-06 04:43 | 23.66878 | 9.84844 | 36884 ft | 539 kts | 154° |
| 2026-05-06 04:43 | 23.60410 | 9.88950 | 36885 ft | 538 kts | 154° |
| 2026-05-06 04:44 | 23.53948 | 9.93046 | 36883 ft | 537 kts | 154° |
| 2026-05-06 04:44 | 23.47484 | 9.97138 | 36881 ft | 537 kts | 154° |
| 2026-05-06 04:45 | 23.41015 | 10.01229 | 36861 ft | 538 kts | 154° |
| 2026-05-06 04:45 | 23.34523 | 10.05328 | 36875 ft | 541 kts | 154° |
| 2026-05-06 04:46 | 23.28038 | 10.09422 | 36874 ft | 531 kts | 154° |
| 2026-05-06 04:46 | 23.21743 | 10.13400 | 36875 ft | 519 kts | 154° |
| 2026-05-06 04:47 | 23.15511 | 10.17320 | 36873 ft | 516 kts | 154° |
| 2026-05-06 04:47 | 23.09323 | 10.21208 | 36858 ft | 512 kts | 154° |
| 2026-05-06 04:48 | 23.03207 | 10.25048 | 36869 ft | 511 kts | 154° |
| 2026-05-06 04:48 | 22.97051 | 10.28909 | 36860 ft | 511 kts | 154° |
| 2026-05-06 04:49 | 22.90895 | 10.32767 | 36862 ft | 511 kts | 154° |
| 2026-05-06 04:49 | 22.84743 | 10.36619 | 36859 ft | 511 kts | 154° |
| 2026-05-06 04:50 | 22.78588 | 10.40469 | 36859 ft | 511 kts | 154° |
| 2026-05-06 04:50 | 22.72427 | 10.44318 | 36863 ft | 511 kts | 154° |
| 2026-05-06 04:51 | 22.66264 | 10.48166 | 36864 ft | 511 kts | 154° |
| 2026-05-06 04:51 | 22.60117 | 10.52042 | 36853 ft | 512 kts | 153° |
| 2026-05-06 04:52 | 22.54055 | 10.56123 | 36852 ft | 513 kts | 152° |
| 2026-05-06 04:52 | 22.48020 | 10.60234 | 36846 ft | 511 kts | 152° |
| 2026-05-06 04:53 | 22.41996 | 10.64297 | 36828 ft | 510 kts | 152° |
| 2026-05-06 04:53 | 22.35946 | 10.68343 | 36839 ft | 512 kts | 152° |
| 2026-05-06 04:54 | 22.29885 | 10.72389 | 36845 ft | 512 kts | 152° |
| 2026-05-06 04:54 | 22.23820 | 10.76435 | 36846 ft | 512 kts | 152° |
| 2026-05-06 04:55 | 22.17793 | 10.80453 | 36840 ft | 512 kts | 152° |
| 2026-05-06 04:55 | 22.11728 | 10.84491 | 36840 ft | 512 kts | 152° |
| 2026-05-06 04:56 | 22.05659 | 10.88529 | 36841 ft | 514 kts | 152° |
| 2026-05-06 04:56 | 21.99571 | 10.92574 | 36843 ft | 515 kts | 152° |
| 2026-05-06 04:57 | 21.93476 | 10.96620 | 36843 ft | 515 kts | 152° |
| 2026-05-06 04:57 | 21.87377 | 11.00665 | 36843 ft | 515 kts | 152° |
| 2026-05-06 04:58 | 21.81282 | 11.04703 | 36843 ft | 515 kts | 152° |
| 2026-05-06 04:58 | 21.75183 | 11.08740 | 36819 ft | 515 kts | 152° |
| 2026-05-06 04:59 | 21.69071 | 11.12780 | 36842 ft | 517 kts | 152° |
| 2026-05-06 04:59 | 21.62943 | 11.16828 | 36846 ft | 517 kts | 152° |
| 2026-05-06 05:00 | 21.56814 | 11.20872 | 36843 ft | 517 kts | 152° |
| 2026-05-06 05:00 | 21.50681 | 11.24916 | 36841 ft | 517 kts | 152° |
| 2026-05-06 05:01 | 21.44546 | 11.28956 | 36843 ft | 517 kts | 152° |
| 2026-05-06 05:01 | 21.38412 | 11.32991 | 36848 ft | 515 kts | 152° |
| 2026-05-06 05:02 | 21.32306 | 11.37005 | 36829 ft | 515 kts | 152° |
| 2026-05-06 05:02 | 21.26200 | 11.41013 | 36846 ft | 515 kts | 152° |
| 2026-05-06 05:03 | 21.20090 | 11.45021 | 36828 ft | 515 kts | 152° |
| 2026-05-06 05:03 | 21.14021 | 11.48997 | 36845 ft | 515 kts | 152° |
| 2026-05-06 05:04 | 21.07908 | 11.53000 | 36840 ft | 515 kts | 152° |
| 2026-05-06 05:04 | 21.01796 | 11.56998 | 36839 ft | 515 kts | 152° |
| 2026-05-06 05:05 | 20.95682 | 11.60994 | 36841 ft | 515 kts | 152° |
| 2026-05-06 05:05 | 20.89568 | 11.64986 | 36841 ft | 515 kts | 152° |
| 2026-05-06 05:06 | 20.83454 | 11.68974 | 36821 ft | 514 kts | 152° |
| 2026-05-06 05:06 | 20.77375 | 11.72937 | 36842 ft | 510 kts | 152° |
| 2026-05-06 05:07 | 20.71325 | 11.76876 | 36838 ft | 510 kts | 152° |
| 2026-05-06 05:07 | 20.65257 | 11.80821 | 36837 ft | 511 kts | 152° |
| 2026-05-06 05:08 | 20.59177 | 11.84771 | 36836 ft | 512 kts | 152° |
| 2026-05-06 05:08 | 20.53094 | 11.88725 | 36837 ft | 512 kts | 152° |
| 2026-05-06 05:09 | 20.47008 | 11.92669 | 36841 ft | 512 kts | 152° |
| 2026-05-06 05:09 | 20.40921 | 11.96608 | 36841 ft | 512 kts | 152° |
| 2026-05-06 05:10 | 20.34826 | 12.00550 | 36841 ft | 513 kts | 152° |
| 2026-05-06 05:10 | 20.28715 | 12.04499 | 36852 ft | 514 kts | 152° |
| 2026-05-06 05:11 | 20.22661 | 12.08410 | 36843 ft | 511 kts | 152° |
| 2026-05-06 05:11 | 20.16594 | 12.12325 | 36843 ft | 510 kts | 152° |
| 2026-05-06 05:12 | 20.10525 | 12.16237 | 36841 ft | 510 kts | 152° |
| 2026-05-06 05:12 | 20.04448 | 12.20150 | 36832 ft | 510 kts | 152° |
| 2026-05-06 05:13 | 19.98362 | 12.24065 | 36842 ft | 512 kts | 152° |
| 2026-05-06 05:13 | 19.92261 | 12.27987 | 36842 ft | 513 kts | 152° |
| 2026-05-06 05:14 | 19.86155 | 12.31909 | 36842 ft | 513 kts | 152° |
| 2026-05-06 05:14 | 19.80050 | 12.35827 | 36842 ft | 513 kts | 152° |
| 2026-05-06 05:15 | 19.73944 | 12.39741 | 36840 ft | 513 kts | 152° |
| 2026-05-06 05:15 | 19.67834 | 12.43655 | 36837 ft | 513 kts | 152° |
| 2026-05-06 05:16 | 19.61715 | 12.47570 | 36840 ft | 514 kts | 152° |
| 2026-05-06 05:16 | 19.55590 | 12.51486 | 36839 ft | 514 kts | 152° |
| 2026-05-06 05:17 | 19.49461 | 12.55402 | 36838 ft | 514 kts | 152° |
| 2026-05-06 05:17 | 19.43335 | 12.59311 | 36842 ft | 514 kts | 152° |
| 2026-05-06 05:18 | 19.37201 | 12.63222 | 36842 ft | 514 kts | 152° |
| 2026-05-06 05:18 | 19.31066 | 12.67130 | 36845 ft | 516 kts | 152° |
| 2026-05-06 05:19 | 19.24942 | 12.71027 | 36838 ft | 517 kts | 152° |
| 2026-05-06 05:19 | 19.18768 | 12.74955 | 36848 ft | 518 kts | 152° |
| 2026-05-06 05:20 | 19.12599 | 12.78875 | 36840 ft | 517 kts | 152° |
| 2026-05-06 05:20 | 19.07452 | 12.82143 | 36842 ft | 515 kts | 152° |
| 2026-05-06 05:21 | 19.01317 | 12.86034 | 36839 ft | 514 kts | 152° |
| 2026-05-06 05:21 | 18.94892 | 12.89077 | 36843 ft | 508 kts | 165° |
| 2026-05-06 05:22 | 18.88181 | 12.91381 | 36845 ft | 507 kts | 167° |
| 2026-05-06 05:22 | 18.81434 | 12.93554 | 36849 ft | 507 kts | 167° |
| 2026-05-06 05:23 | 18.74682 | 12.95728 | 36846 ft | 507 kts | 167° |
| 2026-05-06 05:23 | 18.64570 | 12.99016 | 36838 ft | 507 kts | 167° |
| 2026-05-06 05:24 | 18.57808 | 13.01221 | 36847 ft | 509 kts | 167° |
| 2026-05-06 05:24 | 18.51034 | 13.03429 | 36846 ft | 510 kts | 167° |
| 2026-05-06 05:25 | 18.44255 | 13.05636 | 36845 ft | 510 kts | 167° |
| 2026-05-06 05:25 | 18.37482 | 13.07839 | 36854 ft | 510 kts | 167° |
| 2026-05-06 05:26 | 18.30701 | 13.10042 | 36849 ft | 510 kts | 167° |
| 2026-05-06 05:26 | 18.23922 | 13.12242 | 36852 ft | 510 kts | 167° |
| 2026-05-06 05:27 | 18.17145 | 13.14441 | 36853 ft | 509 kts | 167° |
| 2026-05-06 05:27 | 18.10397 | 13.16630 | 36854 ft | 507 kts | 167° |
| 2026-05-06 05:28 | 18.03664 | 13.18811 | 36854 ft | 506 kts | 167° |
| 2026-05-06 05:28 | 17.96924 | 13.20991 | 36856 ft | 507 kts | 167° |
| 2026-05-06 05:29 | 17.90222 | 13.23157 | 36859 ft | 508 kts | 167° |
| 2026-05-06 05:29 | 17.83452 | 13.25344 | 36859 ft | 509 kts | 167° |
| 2026-05-06 05:30 | 17.76681 | 13.27530 | 36862 ft | 509 kts | 167° |
| 2026-05-06 05:30 | 17.69911 | 13.29714 | 36862 ft | 509 kts | 167° |
| 2026-05-06 05:31 | 17.63137 | 13.31898 | 36864 ft | 509 kts | 167° |
| 2026-05-06 05:31 | 17.56363 | 13.34080 | 36867 ft | 509 kts | 167° |
| 2026-05-06 05:32 | 17.49588 | 13.36262 | 36867 ft | 509 kts | 167° |
| 2026-05-06 05:32 | 17.42814 | 13.38442 | 36867 ft | 509 kts | 167° |
| 2026-05-06 05:33 | 17.36034 | 13.40618 | 36874 ft | 509 kts | 167° |
| 2026-05-06 05:33 | 17.29260 | 13.42791 | 36872 ft | 509 kts | 167° |
| 2026-05-06 05:34 | 17.22475 | 13.44967 | 36870 ft | 510 kts | 167° |
| 2026-05-06 05:34 | 17.15679 | 13.47146 | 36870 ft | 511 kts | 167° |
| 2026-05-06 05:35 | 17.08881 | 13.49324 | 36870 ft | 511 kts | 167° |
| 2026-05-06 05:35 | 17.02093 | 13.51496 | 36875 ft | 509 kts | 167° |
| 2026-05-06 05:36 | 16.95332 | 13.53660 | 36877 ft | 508 kts | 167° |
| 2026-05-06 05:36 | 16.88573 | 13.55819 | 36876 ft | 509 kts | 166° |
| 2026-05-06 05:37 | 16.81792 | 13.57984 | 36876 ft | 510 kts | 166° |
| 2026-05-06 05:37 | 16.75006 | 13.60150 | 36875 ft | 510 kts | 166° |
| 2026-05-06 05:38 | 16.68221 | 13.62313 | 36871 ft | 510 kts | 166° |
| 2026-05-06 05:38 | 16.61479 | 13.64462 | 36872 ft | 510 kts | 166° |
| 2026-05-06 05:39 | 16.54689 | 13.66626 | 36873 ft | 511 kts | 166° |
| 2026-05-06 05:39 | 16.47886 | 13.68791 | 36873 ft | 511 kts | 166° |
| 2026-05-06 05:40 | 16.41081 | 13.70952 | 36869 ft | 511 kts | 166° |
| 2026-05-06 05:40 | 16.34273 | 13.73114 | 36870 ft | 511 kts | 166° |
| 2026-05-06 05:41 | 16.27470 | 13.75273 | 36870 ft | 511 kts | 166° |
| 2026-05-06 05:41 | 16.20659 | 13.77433 | 36871 ft | 512 kts | 166° |
| 2026-05-06 05:42 | 16.13837 | 13.79595 | 36868 ft | 513 kts | 166° |
| 2026-05-06 05:42 | 16.07010 | 13.81757 | 36868 ft | 513 kts | 166° |
| 2026-05-06 05:43 | 16.00188 | 13.83917 | 36867 ft | 513 kts | 166° |
| 2026-05-06 05:43 | 15.93362 | 13.86076 | 36873 ft | 513 kts | 166° |
| 2026-05-06 05:44 | 15.86548 | 13.88231 | 36862 ft | 511 kts | 166° |
| 2026-05-06 05:44 | 15.79733 | 13.90383 | 36862 ft | 512 kts | 166° |
| 2026-05-06 05:45 | 15.72918 | 13.92533 | 36859 ft | 512 kts | 166° |
| 2026-05-06 05:45 | 15.66103 | 13.94683 | 36859 ft | 512 kts | 166° |
| 2026-05-06 05:46 | 15.59335 | 13.96816 | 36861 ft | 512 kts | 166° |
| 2026-05-06 05:46 | 15.52519 | 13.98962 | 36852 ft | 512 kts | 166° |
| 2026-05-06 05:47 | 15.45688 | 14.01112 | 36853 ft | 514 kts | 166° |
| 2026-05-06 05:47 | 15.38844 | 14.03264 | 36851 ft | 514 kts | 166° |
| 2026-05-06 05:48 | 15.31998 | 14.05416 | 36852 ft | 514 kts | 166° |
| 2026-05-06 05:48 | 15.25153 | 14.07566 | 36847 ft | 514 kts | 166° |
| 2026-05-06 05:49 | 15.18308 | 14.09715 | 36853 ft | 514 kts | 166° |
| 2026-05-06 05:49 | 15.11454 | 14.11865 | 36845 ft | 514 kts | 166° |
| 2026-05-06 05:50 | 15.04602 | 14.14013 | 36847 ft | 515 kts | 166° |
| 2026-05-06 05:50 | 14.97750 | 14.16159 | 36846 ft | 514 kts | 166° |
| 2026-05-06 05:51 | 14.90900 | 14.18304 | 36841 ft | 514 kts | 166° |
| 2026-05-06 05:51 | 14.84049 | 14.20447 | 36822 ft | 514 kts | 166° |
| 2026-05-06 05:52 | 14.77195 | 14.22589 | 36839 ft | 514 kts | 166° |
| 2026-05-06 05:52 | 14.70354 | 14.24728 | 36836 ft | 513 kts | 166° |
| 2026-05-06 05:53 | 14.63521 | 14.26861 | 36830 ft | 513 kts | 166° |
| 2026-05-06 05:53 | 14.56687 | 14.28993 | 36835 ft | 513 kts | 166° |
| 2026-05-06 05:54 | 14.49852 | 14.31124 | 36835 ft | 513 kts | 166° |
| 2026-05-06 05:54 | 14.43064 | 14.33239 | 36832 ft | 513 kts | 166° |
| 2026-05-06 05:55 | 14.36232 | 14.35371 | 36832 ft | 513 kts | 166° |
| 2026-05-06 05:55 | 14.29392 | 14.37500 | 36837 ft | 513 kts | 166° |
| 2026-05-06 05:56 | 14.22560 | 14.39622 | 36837 ft | 513 kts | 166° |
| 2026-05-06 05:56 | 14.15725 | 14.41746 | 36830 ft | 513 kts | 166° |
| 2026-05-06 05:57 | 14.08890 | 14.43869 | 36839 ft | 513 kts | 166° |
| 2026-05-06 05:57 | 14.02051 | 14.45992 | 36835 ft | 513 kts | 166° |
| 2026-05-06 05:58 | 13.95220 | 14.48111 | 36837 ft | 513 kts | 166° |
| 2026-05-06 05:58 | 13.88385 | 14.50231 | 36834 ft | 513 kts | 166° |
| 2026-05-06 05:59 | 13.81547 | 14.52349 | 36837 ft | 513 kts | 166° |
| 2026-05-06 05:59 | 13.74709 | 14.54466 | 36836 ft | 513 kts | 166° |
| 2026-05-06 06:00 | 13.67877 | 14.56581 | 36845 ft | 513 kts | 166° |
| 2026-05-06 06:00 | 13.61049 | 14.58693 | 36843 ft | 513 kts | 166° |
| 2026-05-06 06:01 | 13.54215 | 14.60806 | 36843 ft | 513 kts | 166° |
| 2026-05-06 06:01 | 13.47382 | 14.62917 | 36838 ft | 512 kts | 166° |
| 2026-05-06 06:02 | 13.40556 | 14.65024 | 36830 ft | 512 kts | 165° |
| 2026-05-06 06:02 | 13.33726 | 14.67131 | 36835 ft | 512 kts | 165° |
| 2026-05-06 06:03 | 13.26901 | 14.69236 | 36835 ft | 512 kts | 165° |
| 2026-05-06 06:03 | 13.20074 | 14.71341 | 36832 ft | 512 kts | 165° |
| 2026-05-06 06:04 | 13.13244 | 14.73444 | 36833 ft | 512 kts | 165° |
| 2026-05-06 06:04 | 13.06417 | 14.75546 | 36825 ft | 512 kts | 165° |
| 2026-05-06 06:05 | 12.99592 | 14.77645 | 36829 ft | 512 kts | 165° |
| 2026-05-06 06:05 | 12.92775 | 14.79742 | 36827 ft | 512 kts | 165° |
| 2026-05-06 06:06 | 12.85954 | 14.81838 | 36829 ft | 511 kts | 165° |
| 2026-05-06 06:06 | 12.79184 | 14.83917 | 36828 ft | 511 kts | 165° |
| 2026-05-06 06:07 | 12.72367 | 14.86010 | 36825 ft | 512 kts | 165° |
| 2026-05-06 06:07 | 12.65549 | 14.88101 | 36825 ft | 511 kts | 165° |
| 2026-05-06 06:08 | 12.58740 | 14.90189 | 36824 ft | 511 kts | 165° |
| 2026-05-06 06:08 | 12.51935 | 14.92275 | 36826 ft | 511 kts | 165° |
| 2026-05-06 06:09 | 12.46278 | 14.94007 | 36818 ft | 510 kts | 165° |
| 2026-05-06 06:09 | 12.39439 | 14.96101 | 36821 ft | 510 kts | 165° |
| 2026-05-06 06:10 | 12.32686 | 14.98167 | 36822 ft | 509 kts | 165° |
| 2026-05-06 06:10 | 12.25907 | 15.00240 | 36804 ft | 508 kts | 165° |
| 2026-05-06 06:11 | 12.19138 | 15.02309 | 36804 ft | 508 kts | 165° |
| 2026-05-06 06:11 | 12.12278 | 15.03935 | 36806 ft | 505 kts | 175° |
| 2026-05-06 06:12 | 12.05305 | 15.04737 | 36799 ft | 504 kts | 177° |
| 2026-05-06 06:12 | 11.98317 | 15.05395 | 36797 ft | 504 kts | 177° |
| 2026-05-06 06:13 | 11.91343 | 15.06039 | 36826 ft | 503 kts | 177° |
| 2026-05-06 06:13 | 11.84384 | 15.06698 | 36819 ft | 502 kts | 177° |
| 2026-05-06 06:14 | 11.77419 | 15.07367 | 36823 ft | 502 kts | 177° |
| 2026-05-06 06:14 | 11.70462 | 15.08037 | 36813 ft | 502 kts | 177° |
| 2026-05-06 06:15 | 11.63503 | 15.08707 | 36821 ft | 502 kts | 177° |
| 2026-05-06 06:15 | 11.56539 | 15.09375 | 36823 ft | 503 kts | 177° |
| 2026-05-06 06:16 | 11.49573 | 15.10044 | 36819 ft | 503 kts | 176° |
| 2026-05-06 06:16 | 11.42609 | 15.10712 | 36821 ft | 503 kts | 177° |
| 2026-05-06 06:17 | 11.35648 | 15.11380 | 36816 ft | 503 kts | 176° |
| 2026-05-06 06:17 | 11.28672 | 15.12049 | 36820 ft | 503 kts | 177° |
| 2026-05-06 06:18 | 11.21714 | 15.12716 | 36817 ft | 502 kts | 177° |
| 2026-05-06 06:18 | 11.14762 | 15.13381 | 36816 ft | 502 kts | 177° |
| 2026-05-06 06:19 | 11.07857 | 15.14042 | 36818 ft | 502 kts | 177° |
| 2026-05-06 06:19 | 11.00905 | 15.14707 | 36820 ft | 502 kts | 177° |
| 2026-05-06 06:20 | 10.93957 | 15.15372 | 36821 ft | 502 kts | 177° |
| 2026-05-06 06:20 | 10.87005 | 15.16036 | 36814 ft | 501 kts | 177° |
| 2026-05-06 06:21 | 10.80063 | 15.16700 | 36817 ft | 501 kts | 177° |
| 2026-05-06 06:21 | 10.73119 | 15.17363 | 36822 ft | 501 kts | 177° |
| 2026-05-06 06:22 | 10.66181 | 15.18025 | 36823 ft | 501 kts | 177° |
| 2026-05-06 06:22 | 10.59241 | 15.18687 | 36823 ft | 501 kts | 177° |
| 2026-05-06 06:23 | 10.52301 | 15.19349 | 36819 ft | 501 kts | 177° |
| 2026-05-06 06:23 | 10.45362 | 15.20010 | 36824 ft | 501 kts | 177° |
| 2026-05-06 06:24 | 10.38418 | 15.20672 | 36824 ft | 501 kts | 177° |
| 2026-05-06 06:24 | 10.31481 | 15.21333 | 36832 ft | 501 kts | 177° |
| 2026-05-06 06:25 | 10.24536 | 15.21994 | 36834 ft | 501 kts | 177° |
| 2026-05-06 06:26 | 10.14128 | 15.22984 | 36839 ft | 501 kts | 177° |
| 2026-05-06 06:26 | 10.07187 | 15.23644 | 36837 ft | 501 kts | 177° |
| 2026-05-06 06:27 | 10.00247 | 15.24303 | 36844 ft | 501 kts | 177° |
| 2026-05-06 06:27 | 9.93356 | 15.24958 | 36845 ft | 501 kts | 177° |
| 2026-05-06 06:28 | 9.86414 | 15.25618 | 36849 ft | 501 kts | 177° |
| 2026-05-06 06:28 | 9.79478 | 15.26277 | 36848 ft | 501 kts | 177° |
| 2026-05-06 06:29 | 9.72536 | 15.26936 | 36854 ft | 501 kts | 177° |
| 2026-05-06 06:29 | 9.65598 | 15.27594 | 36853 ft | 501 kts | 177° |
| 2026-05-06 06:30 | 9.58651 | 15.28253 | 36862 ft | 501 kts | 177° |
| 2026-05-06 06:30 | 9.51710 | 15.28911 | 36862 ft | 501 kts | 177° |
| 2026-05-06 06:31 | 9.44809 | 15.29566 | 36865 ft | 496 kts | 177° |
| 2026-05-06 06:31 | 9.37947 | 15.30217 | 36861 ft | 495 kts | 177° |
| 2026-05-06 06:32 | 9.31083 | 15.30867 | 36863 ft | 495 kts | 177° |
| 2026-05-06 06:32 | 9.24224 | 15.31514 | 36866 ft | 495 kts | 177° |
| 2026-05-06 06:33 | 9.17360 | 15.32163 | 36865 ft | 495 kts | 177° |
| 2026-05-06 06:33 | 9.10498 | 15.32811 | 36871 ft | 495 kts | 176° |
| 2026-05-06 06:34 | 9.03633 | 15.33460 | 36872 ft | 495 kts | 176° |
| 2026-05-06 06:34 | 8.96777 | 15.34107 | 36874 ft | 495 kts | 176° |
| 2026-05-06 06:35 | 8.89913 | 15.34755 | 36875 ft | 495 kts | 176° |
| 2026-05-06 06:35 | 8.83049 | 15.35403 | 36875 ft | 495 kts | 176° |
| 2026-05-06 06:36 | 8.76187 | 15.36050 | 36875 ft | 495 kts | 176° |
| 2026-05-06 06:36 | 8.69371 | 15.36693 | 36881 ft | 495 kts | 176° |
| 2026-05-06 06:37 | 8.62521 | 15.37339 | 36884 ft | 495 kts | 176° |
| 2026-05-06 06:37 | 8.55666 | 15.37985 | 36883 ft | 495 kts | 176° |
| 2026-05-06 06:38 | 8.48812 | 15.38630 | 36883 ft | 495 kts | 176° |
| 2026-05-06 06:38 | 8.41958 | 15.39276 | 36889 ft | 495 kts | 176° |
| 2026-05-06 06:39 | 8.35110 | 15.39920 | 36889 ft | 494 kts | 176° |
| 2026-05-06 06:39 | 8.28271 | 15.40564 | 36894 ft | 493 kts | 176° |
| 2026-05-06 06:40 | 8.21430 | 15.41207 | 36896 ft | 493 kts | 176° |
| 2026-05-06 06:40 | 8.14596 | 15.41850 | 36899 ft | 493 kts | 176° |
| 2026-05-06 06:41 | 8.07758 | 15.42492 | 36901 ft | 493 kts | 176° |
| 2026-05-06 06:41 | 8.00924 | 15.43135 | 36899 ft | 492 kts | 176° |
| 2026-05-06 06:42 | 7.94119 | 15.43778 | 36903 ft | 491 kts | 176° |
| 2026-05-06 06:42 | 7.87319 | 15.44416 | 36911 ft | 491 kts | 176° |
| 2026-05-06 06:43 | 7.80515 | 15.45053 | 36910 ft | 491 kts | 176° |
| 2026-05-06 06:43 | 7.73714 | 15.45691 | 36915 ft | 491 kts | 176° |
| 2026-05-06 06:44 | 7.66912 | 15.46329 | 36915 ft | 491 kts | 176° |
| 2026-05-06 06:44 | 7.60124 | 15.46966 | 36927 ft | 489 kts | 176° |
| 2026-05-06 06:45 | 7.53399 | 15.47597 | 36927 ft | 489 kts | 176° |
| 2026-05-06 06:45 | 7.46628 | 15.48232 | 36942 ft | 489 kts | 176° |
| 2026-05-06 06:46 | 7.39856 | 15.48866 | 36944 ft | 489 kts | 176° |
| 2026-05-06 06:46 | 7.33084 | 15.49501 | 36944 ft | 489 kts | 176° |
| 2026-05-06 06:47 | 7.26316 | 15.50138 | 36957 ft | 487 kts | 176° |
| 2026-05-06 06:47 | 7.19571 | 15.50770 | 36959 ft | 486 kts | 176° |
| 2026-05-06 06:48 | 7.12837 | 15.51399 | 36958 ft | 486 kts | 176° |
| 2026-05-06 06:48 | 7.06099 | 15.52028 | 36957 ft | 486 kts | 176° |
| 2026-05-06 06:49 | 6.99357 | 15.52658 | 36968 ft | 486 kts | 176° |
| 2026-05-06 06:49 | 6.92621 | 15.53290 | 36966 ft | 486 kts | 176° |
| 2026-05-06 06:50 | 6.85885 | 15.53923 | 36977 ft | 486 kts | 176° |
| 2026-05-06 06:50 | 6.79148 | 15.54550 | 36976 ft | 486 kts | 176° |
| 2026-05-06 06:51 | 6.72409 | 15.55177 | 36983 ft | 486 kts | 176° |
| 2026-05-06 06:51 | 6.65671 | 15.55806 | 36982 ft | 486 kts | 176° |
| 2026-05-06 06:52 | 6.58928 | 15.56435 | 36988 ft | 486 kts | 176° |
| 2026-05-06 06:52 | 6.52191 | 15.57063 | 36988 ft | 486 kts | 175° |
| 2026-05-06 06:53 | 6.45465 | 15.57690 | 36987 ft | 486 kts | 176° |
| 2026-05-06 06:53 | 6.38733 | 15.58318 | 36990 ft | 486 kts | 176° |
| 2026-05-06 06:54 | 6.32050 | 15.58941 | 36990 ft | 486 kts | 176° |
| 2026-05-06 06:54 | 6.25321 | 15.59568 | 36987 ft | 486 kts | 176° |
| 2026-05-06 06:55 | 6.18593 | 15.60194 | 36984 ft | 485 kts | 175° |
| 2026-05-06 06:55 | 6.11874 | 15.60820 | 36984 ft | 485 kts | 175° |
| 2026-05-06 06:56 | 6.05152 | 15.61447 | 36986 ft | 485 kts | 175° |
| 2026-05-06 06:56 | 5.98433 | 15.62072 | 36981 ft | 485 kts | 175° |
| 2026-05-06 06:57 | 5.91713 | 15.62698 | 36981 ft | 485 kts | 175° |
| 2026-05-06 06:57 | 5.84990 | 15.63323 | 36978 ft | 485 kts | 175° |
| 2026-05-06 06:58 | 5.79407 | 15.63842 | 36980 ft | 485 kts | 175° |
| 2026-05-06 06:58 | 5.72679 | 15.64468 | 36980 ft | 485 kts | 175° |
| 2026-05-06 06:59 | 5.65961 | 15.65093 | 36976 ft | 485 kts | 175° |
| 2026-05-06 06:59 | 5.59242 | 15.65717 | 36976 ft | 485 kts | 175° |
| 2026-05-06 07:00 | 5.52523 | 15.66343 | 36975 ft | 485 kts | 175° |
| 2026-05-06 07:00 | 5.45808 | 15.66968 | 36976 ft | 484 kts | 175° |
| 2026-05-06 07:01 | 5.39119 | 15.67592 | 36974 ft | 482 kts | 175° |
| 2026-05-06 07:01 | 5.32442 | 15.68215 | 36971 ft | 482 kts | 175° |
| 2026-05-06 07:02 | 5.25761 | 15.68838 | 36971 ft | 482 kts | 175° |
| 2026-05-06 07:02 | 5.19083 | 15.69459 | 36972 ft | 482 kts | 175° |
| 2026-05-06 07:03 | 5.12403 | 15.70081 | 36975 ft | 482 kts | 175° |
| 2026-05-06 07:03 | 5.05739 | 15.70702 | 36972 ft | 480 kts | 175° |
| 2026-05-06 07:04 | 4.99099 | 15.71320 | 36974 ft | 479 kts | 175° |
| 2026-05-06 07:04 | 4.92464 | 15.71937 | 36975 ft | 479 kts | 175° |
| 2026-05-06 07:05 | 4.85826 | 15.72555 | 36971 ft | 479 kts | 175° |
| 2026-05-06 07:05 | 4.79183 | 15.73169 | 36971 ft | 479 kts | 175° |
| 2026-05-06 07:06 | 4.72550 | 15.73785 | 36972 ft | 478 kts | 175° |
| 2026-05-06 07:06 | 4.65936 | 15.74399 | 36972 ft | 478 kts | 175° |
| 2026-05-06 07:07 | 4.59319 | 15.75013 | 36970 ft | 477 kts | 175° |
| 2026-05-06 07:07 | 4.52704 | 15.75626 | 36972 ft | 477 kts | 175° |
| 2026-05-06 07:08 | 4.46083 | 15.76240 | 36972 ft | 478 kts | 175° |
| 2026-05-06 07:08 | 4.39467 | 15.76852 | 36971 ft | 477 kts | 175° |
| 2026-05-06 07:09 | 4.32867 | 15.77464 | 36969 ft | 476 kts | 175° |
| 2026-05-06 07:09 | 4.26280 | 15.78074 | 36967 ft | 475 kts | 175° |
| 2026-05-06 07:10 | 4.19719 | 15.78213 | 36969 ft | 475 kts | 182° |
| 2026-05-06 07:10 | 4.13111 | 15.77946 | 36969 ft | 475 kts | 183° |
| 2026-05-06 07:11 | 4.06510 | 15.77612 | 36967 ft | 475 kts | 183° |
| 2026-05-06 07:11 | 3.99905 | 15.77277 | 36966 ft | 475 kts | 183° |
| 2026-05-06 07:12 | 3.93308 | 15.76954 | 36971 ft | 474 kts | 182° |
| 2026-05-06 07:12 | 3.86716 | 15.76636 | 36968 ft | 474 kts | 182° |
| 2026-05-06 07:13 | 3.80125 | 15.76319 | 36972 ft | 475 kts | 182° |
| 2026-05-06 07:13 | 3.73525 | 15.76002 | 36972 ft | 475 kts | 182° |
| 2026-05-06 07:14 | 3.66928 | 15.75684 | 36975 ft | 475 kts | 182° |
| 2026-05-06 07:14 | 3.60336 | 15.75365 | 36975 ft | 474 kts | 182° |
| 2026-05-06 07:15 | 3.53755 | 15.75048 | 36976 ft | 473 kts | 182° |
| 2026-05-06 07:15 | 3.47175 | 15.74732 | 36975 ft | 473 kts | 182° |
| 2026-05-06 07:16 | 3.40599 | 15.74415 | 36974 ft | 473 kts | 182° |
| 2026-05-06 07:16 | 3.34016 | 15.74098 | 36980 ft | 473 kts | 182° |
| 2026-05-06 07:17 | 3.27439 | 15.73781 | 36978 ft | 473 kts | 182° |
| 2026-05-06 07:17 | 3.20859 | 15.73464 | 36980 ft | 473 kts | 182° |
| 2026-05-06 07:18 | 3.14278 | 15.73148 | 36978 ft | 473 kts | 182° |
| 2026-05-06 07:18 | 3.07700 | 15.72830 | 36978 ft | 473 kts | 182° |
| 2026-05-06 07:19 | 3.01119 | 15.72514 | 36976 ft | 473 kts | 182° |
| 2026-05-06 07:19 | 2.94539 | 15.72197 | 36978 ft | 473 kts | 182° |
| 2026-05-06 07:20 | 2.88008 | 15.71882 | 36975 ft | 472 kts | 182° |
| 2026-05-06 07:20 | 2.81445 | 15.71566 | 36978 ft | 472 kts | 182° |
| 2026-05-06 07:21 | 2.74886 | 15.71251 | 36978 ft | 472 kts | 182° |
| 2026-05-06 07:21 | 2.68326 | 15.70935 | 36976 ft | 472 kts | 182° |
| 2026-05-06 07:22 | 2.61766 | 15.70619 | 36976 ft | 472 kts | 182° |
| 2026-05-06 07:22 | 2.55206 | 15.70302 | 36976 ft | 472 kts | 182° |
| 2026-05-06 07:23 | 2.48668 | 15.69987 | 36978 ft | 470 kts | 181° |
| 2026-05-06 07:23 | 2.42147 | 15.69672 | 36977 ft | 469 kts | 182° |
| 2026-05-06 07:24 | 2.35627 | 15.69359 | 36975 ft | 469 kts | 182° |
| 2026-05-06 07:24 | 2.29103 | 15.69045 | 36978 ft | 469 kts | 181° |
| 2026-05-06 07:25 | 2.22581 | 15.68731 | 36980 ft | 469 kts | 182° |
| 2026-05-06 07:25 | 2.16056 | 15.68416 | 36980 ft | 469 kts | 182° |
| 2026-05-06 07:26 | 2.09531 | 15.68102 | 36974 ft | 469 kts | 182° |
| 2026-05-06 07:26 | 2.03004 | 15.67787 | 36975 ft | 469 kts | 182° |
| 2026-05-06 07:27 | 1.96480 | 15.67473 | 36979 ft | 469 kts | 182° |
| 2026-05-06 07:27 | 1.89956 | 15.67159 | 36976 ft | 469 kts | 182° |
| 2026-05-06 07:28 | 1.83429 | 15.66846 | 36972 ft | 469 kts | 182° |
| 2026-05-06 07:28 | 1.73626 | 15.66373 | 36977 ft | 471 kts | 182° |
| 2026-05-06 07:29 | 1.67083 | 15.66058 | 36980 ft | 471 kts | 182° |
| 2026-05-06 07:29 | 1.60535 | 15.65744 | 36989 ft | 471 kts | 182° |
| 2026-05-06 07:30 | 1.53988 | 15.65429 | 36983 ft | 471 kts | 181° |
| 2026-05-06 07:30 | 1.47443 | 15.65114 | 36984 ft | 471 kts | 182° |
| 2026-05-06 07:31 | 1.40891 | 15.64798 | 36986 ft | 472 kts | 182° |
| 2026-05-06 07:31 | 1.34338 | 15.64483 | 36988 ft | 472 kts | 182° |
| 2026-05-06 07:32 | 1.27779 | 15.64167 | 36995 ft | 472 kts | 181° |
| 2026-05-06 07:32 | 1.21233 | 15.63853 | 36995 ft | 471 kts | 181° |
| 2026-05-06 07:33 | 1.14686 | 15.63538 | 36997 ft | 471 kts | 181° |
| 2026-05-06 07:33 | 1.08147 | 15.63223 | 37001 ft | 471 kts | 182° |
| 2026-05-06 07:34 | 1.01595 | 15.62908 | 37004 ft | 471 kts | 182° |
| 2026-05-06 07:34 | 0.95090 | 15.62595 | 37004 ft | 471 kts | 182° |
| 2026-05-06 07:35 | 0.88538 | 15.62280 | 37004 ft | 471 kts | 182° |
| 2026-05-06 07:35 | 0.81986 | 15.61964 | 37003 ft | 471 kts | 182° |
| 2026-05-06 07:36 | 0.75431 | 15.61649 | 37005 ft | 471 kts | 182° |
| 2026-05-06 07:36 | 0.68881 | 15.61334 | 37006 ft | 472 kts | 181° |
| 2026-05-06 07:37 | 0.62316 | 15.61018 | 37006 ft | 472 kts | 181° |
| 2026-05-06 07:37 | 0.55749 | 15.60703 | 37007 ft | 472 kts | 181° |
| 2026-05-06 07:38 | 0.49179 | 15.60387 | 37007 ft | 473 kts | 181° |
| 2026-05-06 07:38 | 0.42611 | 15.60071 | 37011 ft | 472 kts | 181° |
| 2026-05-06 07:39 | 0.36046 | 15.59755 | 37011 ft | 472 kts | 181° |
| 2026-05-06 07:39 | 0.29478 | 15.59439 | 37011 ft | 472 kts | 181° |
| 2026-05-06 07:40 | 0.22915 | 15.59124 | 37012 ft | 472 kts | 181° |
| 2026-05-06 07:40 | 0.16353 | 15.58808 | 37014 ft | 472 kts | 181° |
| 2026-05-06 07:41 | 0.09794 | 15.58492 | 37017 ft | 472 kts | 181° |
| 2026-05-06 07:41 | 0.03234 | 15.58177 | 37016 ft | 472 kts | 181° |
| 2026-05-06 07:42 | -0.03324 | 15.57860 | 37013 ft | 473 kts | 181° |
| 2026-05-06 07:42 | -0.09907 | 15.57412 | 37015 ft | 475 kts | 183° |
| 2026-05-06 07:43 | -0.16498 | 15.56877 | 37016 ft | 475 kts | 183° |
| 2026-05-06 07:43 | -0.21979 | 15.56444 | 37016 ft | 475 kts | 183° |
| 2026-05-06 07:44 | -0.29641 | 15.55862 | 37014 ft | 475 kts | 183° |
| 2026-05-06 07:44 | -0.36230 | 15.55371 | 37015 ft | 475 kts | 183° |
| 2026-05-06 07:45 | -0.41753 | 15.54959 | 37014 ft | 475 kts | 183° |
| 2026-05-06 07:45 | -0.48345 | 15.54468 | 37012 ft | 475 kts | 183° |
| 2026-05-06 07:46 | -0.54933 | 15.53976 | 37012 ft | 475 kts | 183° |
| 2026-05-06 07:46 | -0.61481 | 15.53487 | 37012 ft | 475 kts | 183° |
| 2026-05-06 07:47 | -0.68068 | 15.52995 | 37016 ft | 475 kts | 183° |
| 2026-05-06 07:47 | -0.74701 | 15.52499 | 37009 ft | 475 kts | 183° |
| 2026-05-06 07:48 | -0.81249 | 15.52010 | 37012 ft | 475 kts | 183° |
| 2026-05-06 07:48 | -0.87848 | 15.51517 | 37013 ft | 475 kts | 183° |
| 2026-05-06 07:49 | -0.94446 | 15.51024 | 37008 ft | 475 kts | 183° |
| 2026-05-06 07:49 | -1.01041 | 15.50531 | 37009 ft | 475 kts | 183° |
| 2026-05-06 07:50 | -1.07635 | 15.50039 | 37008 ft | 475 kts | 183° |
| 2026-05-06 07:50 | -1.14233 | 15.49546 | 37006 ft | 475 kts | 183° |
| 2026-05-06 07:51 | -1.20829 | 15.49057 | 37002 ft | 475 kts | 183° |
| 2026-05-06 07:51 | -1.27422 | 15.48566 | 37002 ft | 475 kts | 183° |
| 2026-05-06 07:52 | -1.34021 | 15.48073 | 37003 ft | 475 kts | 183° |
| 2026-05-06 07:52 | -1.40614 | 15.47581 | 37002 ft | 475 kts | 183° |
| 2026-05-06 07:53 | -1.47206 | 15.47090 | 37004 ft | 475 kts | 183° |
| 2026-05-06 07:53 | -1.53797 | 15.46600 | 37001 ft | 475 kts | 183° |
| 2026-05-06 07:54 | -1.60387 | 15.46109 | 37001 ft | 475 kts | 183° |
| 2026-05-06 07:54 | -1.66974 | 15.45618 | 36999 ft | 475 kts | 183° |
| 2026-05-06 07:55 | -1.73518 | 15.45131 | 36998 ft | 475 kts | 183° |
| 2026-05-06 07:55 | -1.80101 | 15.44641 | 36997 ft | 475 kts | 183° |
| 2026-05-06 07:56 | -1.86691 | 15.44136 | 36996 ft | 475 kts | 184° |
| 2026-05-06 07:56 | -1.93280 | 15.43593 | 36998 ft | 476 kts | 184° |
| 2026-05-06 07:57 | -1.99881 | 15.43046 | 36997 ft | 476 kts | 184° |
| 2026-05-06 07:57 | -2.06482 | 15.42506 | 37001 ft | 476 kts | 184° |
| 2026-05-06 07:58 | -2.13087 | 15.41970 | 37000 ft | 476 kts | 184° |
| 2026-05-06 07:58 | -2.19684 | 15.41435 | 36998 ft | 476 kts | 184° |
| 2026-05-06 07:59 | -2.26261 | 15.40901 | 36997 ft | 471 kts | 184° |
| 2026-05-06 07:59 | -2.32769 | 15.40372 | 37000 ft | 468 kts | 184° |
| 2026-05-06 08:00 | -2.39264 | 15.39844 | 37002 ft | 468 kts | 184° |
| 2026-05-06 08:00 | -2.45754 | 15.39317 | 37001 ft | 468 kts | 184° |
| 2026-05-06 08:01 | -2.52247 | 15.38790 | 36996 ft | 468 kts | 184° |
| 2026-05-06 08:01 | -2.58738 | 15.38262 | 36996 ft | 468 kts | 184° |
| 2026-05-06 08:02 | -2.65247 | 15.37733 | 36989 ft | 470 kts | 184° |
| 2026-05-06 08:02 | -2.71775 | 15.37203 | 36991 ft | 471 kts | 184° |
| 2026-05-06 08:03 | -2.78303 | 15.36673 | 36986 ft | 471 kts | 184° |
| 2026-05-06 08:03 | -2.84827 | 15.36143 | 36985 ft | 470 kts | 184° |
| 2026-05-06 08:04 | -2.91353 | 15.35612 | 36980 ft | 471 kts | 184° |
| 2026-05-06 08:04 | -2.97879 | 15.35082 | 36979 ft | 470 kts | 184° |
| 2026-05-06 08:05 | -3.04348 | 15.34555 | 36986 ft | 469 kts | 184° |
| 2026-05-06 08:05 | -3.10860 | 15.34026 | 36978 ft | 469 kts | 184° |
| 2026-05-06 08:06 | -3.17371 | 15.33496 | 36981 ft | 469 kts | 184° |
| 2026-05-06 08:06 | -3.23881 | 15.32967 | 36983 ft | 469 kts | 184° |
| 2026-05-06 08:07 | -3.30389 | 15.32438 | 36977 ft | 469 kts | 184° |
| 2026-05-06 08:07 | -3.36900 | 15.31908 | 36978 ft | 469 kts | 184° |
| 2026-05-06 08:08 | -3.43402 | 15.31379 | 36983 ft | 469 kts | 184° |
| 2026-05-06 08:08 | -3.49908 | 15.30849 | 36983 ft | 469 kts | 184° |
| 2026-05-06 08:09 | -3.56414 | 15.30320 | 36974 ft | 469 kts | 184° |
| 2026-05-06 08:09 | -3.62918 | 15.29790 | 36975 ft | 469 kts | 184° |
| 2026-05-06 08:10 | -3.69419 | 15.29261 | 36967 ft | 469 kts | 184° |
| 2026-05-06 08:10 | -3.75918 | 15.28733 | 36973 ft | 469 kts | 184° |
| 2026-05-06 08:11 | -3.82415 | 15.28203 | 36971 ft | 468 kts | 184° |
| 2026-05-06 08:11 | -3.88899 | 15.27675 | 36977 ft | 468 kts | 185° |
| 2026-05-06 08:12 | -3.95388 | 15.27146 | 36972 ft | 468 kts | 184° |
| 2026-05-06 08:12 | -4.01872 | 15.26618 | 36962 ft | 468 kts | 184° |
| 2026-05-06 08:13 | -4.08357 | 15.26089 | 36961 ft | 468 kts | 184° |
| 2026-05-06 08:13 | -4.14844 | 15.25577 | 36950 ft | 468 kts | 182° |
| 2026-05-06 08:14 | -4.21305 | 15.26102 | 37001 ft | 465 kts | 166° |
| 2026-05-06 08:14 | -4.24389 | 15.27071 | 37187 ft | 466 kts | 157° |
| 2026-05-06 08:14 | -4.27290 | 15.28518 | 37397 ft | 467 kts | 148° |
| 2026-05-06 08:15 | -4.29921 | 15.30419 | 37664 ft | 466 kts | 139° |
| 2026-05-06 08:15 | -4.32239 | 15.32684 | 37984 ft | 465 kts | 133° |
| 2026-05-06 08:15 | -4.34391 | 15.35032 | 38293 ft | 463 kts | 131° |
| 2026-05-06 08:15 | -4.36652 | 15.37326 | 38568 ft | 463 kts | 138° |
| 2026-05-06 08:16 | -4.39173 | 15.39325 | 38792 ft | 462 kts | 146° |
| 2026-05-06 08:16 | -4.41956 | 15.40931 | 38933 ft | 463 kts | 155° |
| 2026-05-06 08:16 | -4.48109 | 15.42725 | 38976 ft | 462 kts | 171° |
| 2026-05-06 08:17 | -4.54506 | 15.43495 | 38956 ft | 464 kts | 174° |
| 2026-05-06 08:17 | -4.60937 | 15.44115 | 38946 ft | 464 kts | 174° |
| 2026-05-06 08:18 | -4.67368 | 15.44755 | 38935 ft | 464 kts | 174° |
| 2026-05-06 08:18 | -4.73794 | 15.45429 | 38936 ft | 464 kts | 174° |
| 2026-05-06 08:19 | -4.80218 | 15.46116 | 38939 ft | 465 kts | 174° |
| 2026-05-06 08:19 | -4.86661 | 15.46807 | 38939 ft | 466 kts | 173° |
| 2026-05-06 08:20 | -4.93118 | 15.47498 | 38937 ft | 467 kts | 174° |
| 2026-05-06 08:20 | -4.99568 | 15.48187 | 38941 ft | 466 kts | 174° |
| 2026-05-06 08:21 | -5.06026 | 15.48877 | 38937 ft | 466 kts | 174° |
| 2026-05-06 08:21 | -5.12479 | 15.49566 | 38950 ft | 466 kts | 174° |
| 2026-05-06 08:22 | -5.18939 | 15.50257 | 38947 ft | 468 kts | 174° |
| 2026-05-06 08:22 | -5.25367 | 15.50944 | 38947 ft | 468 kts | 174° |
| 2026-05-06 08:23 | -5.31886 | 15.51641 | 38955 ft | 468 kts | 174° |
| 2026-05-06 08:23 | -5.38327 | 15.52330 | 38949 ft | 468 kts | 174° |
| 2026-05-06 08:24 | -5.44800 | 15.53022 | 38957 ft | 468 kts | 174° |
| 2026-05-06 08:24 | -5.51277 | 15.53716 | 38970 ft | 468 kts | 174° |
| 2026-05-06 08:25 | -5.57724 | 15.54406 | 38967 ft | 464 kts | 174° |
| 2026-05-06 08:25 | -5.64143 | 15.55093 | 38964 ft | 463 kts | 174° |
| 2026-05-06 08:26 | -5.70554 | 15.55779 | 38976 ft | 463 kts | 174° |
| 2026-05-06 08:26 | -5.76970 | 15.56466 | 38972 ft | 464 kts | 174° |
| 2026-05-06 08:27 | -5.83384 | 15.57153 | 38971 ft | 463 kts | 174° |
| 2026-05-06 08:27 | -5.89792 | 15.57845 | 38978 ft | 463 kts | 174° |
| 2026-05-06 08:28 | -5.96209 | 15.58533 | 38982 ft | 463 kts | 174° |
| 2026-05-06 08:28 | -6.02620 | 15.59220 | 38979 ft | 463 kts | 174° |
| 2026-05-06 08:29 | -6.09034 | 15.59909 | 38977 ft | 463 kts | 174° |
| 2026-05-06 08:29 | -6.15448 | 15.60598 | 38979 ft | 464 kts | 174° |
| 2026-05-06 08:30 | -6.21860 | 15.61287 | 38979 ft | 464 kts | 174° |
| 2026-05-06 08:30 | -6.28271 | 15.61978 | 38981 ft | 463 kts | 175° |
| 2026-05-06 08:31 | -6.34676 | 15.62667 | 38989 ft | 462 kts | 175° |
| 2026-05-06 08:31 | -6.41031 | 15.63350 | 38988 ft | 462 kts | 175° |
| 2026-05-06 08:32 | -6.47471 | 15.64043 | 39005 ft | 462 kts | 175° |
| 2026-05-06 08:32 | -6.53833 | 15.64728 | 38991 ft | 463 kts | 174° |
| 2026-05-06 08:33 | -6.60248 | 15.65419 | 39000 ft | 464 kts | 175° |
| 2026-05-06 08:33 | -6.66657 | 15.66110 | 39004 ft | 463 kts | 175° |
| 2026-05-06 08:34 | -6.75235 | 15.67034 | 39005 ft | 463 kts | 175° |
| 2026-05-06 08:35 | -6.81644 | 15.67725 | 39012 ft | 463 kts | 175° |
| 2026-05-06 08:35 | -6.88055 | 15.68415 | 39009 ft | 463 kts | 175° |
| 2026-05-06 08:36 | -6.94420 | 15.69102 | 39009 ft | 463 kts | 175° |
| 2026-05-06 08:36 | -7.00836 | 15.69794 | 39017 ft | 464 kts | 175° |
| 2026-05-06 08:37 | -7.07260 | 15.70487 | 39016 ft | 464 kts | 175° |
| 2026-05-06 08:37 | -7.13685 | 15.71180 | 39009 ft | 464 kts | 175° |
| 2026-05-06 08:38 | -7.20109 | 15.71874 | 39018 ft | 464 kts | 175° |
| 2026-05-06 08:38 | -7.26537 | 15.72568 | 39024 ft | 464 kts | 175° |
| 2026-05-06 08:39 | -7.32962 | 15.73262 | 39018 ft | 464 kts | 175° |
| 2026-05-06 08:39 | -7.39381 | 15.73956 | 39018 ft | 464 kts | 175° |
| 2026-05-06 08:40 | -7.45796 | 15.74649 | 39016 ft | 464 kts | 175° |
| 2026-05-06 08:40 | -7.52211 | 15.75343 | 39025 ft | 464 kts | 175° |
| 2026-05-06 08:41 | -7.58627 | 15.76036 | 39027 ft | 464 kts | 175° |
| 2026-05-06 08:41 | -7.65040 | 15.76730 | 39023 ft | 464 kts | 175° |
| 2026-05-06 08:42 | -7.71454 | 15.77420 | 39022 ft | 464 kts | 175° |
| 2026-05-06 08:42 | -7.77871 | 15.78113 | 39030 ft | 464 kts | 175° |
| 2026-05-06 08:43 | -7.84243 | 15.78802 | 39012 ft | 464 kts | 175° |
| 2026-05-06 08:43 | -7.90657 | 15.79495 | 39031 ft | 463 kts | 175° |
| 2026-05-06 08:44 | -7.97113 | 15.80192 | 39016 ft | 463 kts | 175° |
| 2026-05-06 08:44 | -8.03479 | 15.80880 | 39019 ft | 463 kts | 175° |
| 2026-05-06 08:45 | -8.09878 | 15.81578 | 39020 ft | 462 kts | 175° |
| 2026-05-06 08:45 | -8.16262 | 15.82274 | 39020 ft | 461 kts | 175° |
| 2026-05-06 08:46 | -8.22643 | 15.82969 | 39019 ft | 461 kts | 175° |
| 2026-05-06 08:46 | -8.29022 | 15.83664 | 39019 ft | 461 kts | 175° |
| 2026-05-06 08:47 | -8.35401 | 15.84361 | 39023 ft | 461 kts | 175° |
| 2026-05-06 08:47 | -8.41779 | 15.85059 | 39028 ft | 461 kts | 175° |
| 2026-05-06 08:48 | -8.48158 | 15.85750 | 39030 ft | 461 kts | 175° |
| 2026-05-06 08:48 | -8.54538 | 15.86440 | 39031 ft | 461 kts | 175° |
| 2026-05-06 08:49 | -8.60917 | 15.87133 | 39029 ft | 461 kts | 175° |
| 2026-05-06 08:49 | -8.67296 | 15.87826 | 39033 ft | 461 kts | 175° |
| 2026-05-06 08:50 | -8.73676 | 15.88520 | 39030 ft | 461 kts | 175° |
| 2026-05-06 08:50 | -8.80063 | 15.89215 | 39034 ft | 463 kts | 175° |
| 2026-05-06 08:51 | -8.86471 | 15.89916 | 39031 ft | 464 kts | 175° |
| 2026-05-06 08:51 | -8.92889 | 15.90613 | 39028 ft | 464 kts | 175° |
| 2026-05-06 08:52 | -8.99264 | 15.91306 | 39026 ft | 464 kts | 175° |
| 2026-05-06 08:52 | -9.05680 | 15.92005 | 39025 ft | 464 kts | 175° |
| 2026-05-06 08:53 | -9.12095 | 15.92705 | 39028 ft | 464 kts | 175° |
| 2026-05-06 08:53 | -9.18517 | 15.93405 | 39024 ft | 465 kts | 175° |
| 2026-05-06 08:54 | -9.24952 | 15.94107 | 39024 ft | 465 kts | 175° |
| 2026-05-06 08:54 | -9.31385 | 15.94809 | 39026 ft | 465 kts | 175° |
| 2026-05-06 08:55 | -9.37815 | 15.95511 | 39020 ft | 465 kts | 175° |
| 2026-05-06 08:55 | -9.44250 | 15.96214 | 39023 ft | 465 kts | 175° |
| 2026-05-06 08:56 | -9.50687 | 15.96923 | 39022 ft | 466 kts | 176° |
| 2026-05-06 08:56 | -9.57145 | 15.97628 | 39024 ft | 467 kts | 176° |
| 2026-05-06 08:57 | -9.63610 | 15.98334 | 39021 ft | 467 kts | 176° |
| 2026-05-06 08:57 | -9.70071 | 15.99042 | 39021 ft | 467 kts | 176° |
| 2026-05-06 08:58 | -9.76530 | 15.99750 | 39020 ft | 467 kts | 176° |
| 2026-05-06 08:58 | -9.82998 | 16.00460 | 39021 ft | 467 kts | 176° |
| 2026-05-06 08:59 | -9.89477 | 16.01171 | 39020 ft | 469 kts | 176° |
| 2026-05-06 08:59 | -9.95967 | 16.01882 | 39021 ft | 469 kts | 176° |
| 2026-05-06 09:00 | -10.02467 | 16.02596 | 39016 ft | 469 kts | 176° |
| 2026-05-06 09:00 | -10.08965 | 16.03310 | 39024 ft | 470 kts | 176° |
| 2026-05-06 09:01 | -10.15460 | 16.04061 | 39019 ft | 470 kts | 175° |
| 2026-05-06 09:01 | -10.21954 | 16.04845 | 39023 ft | 470 kts | 176° |
| 2026-05-06 09:02 | -10.28410 | 16.05624 | 39020 ft | 471 kts | 176° |
| 2026-05-06 09:02 | -10.34910 | 16.06402 | 39025 ft | 470 kts | 176° |
| 2026-05-06 09:03 | -10.41414 | 16.07177 | 39020 ft | 470 kts | 176° |
| 2026-05-06 09:03 | -10.47913 | 16.07953 | 39025 ft | 470 kts | 176° |
| 2026-05-06 09:04 | -10.54412 | 16.08729 | 39030 ft | 470 kts | 176° |
| 2026-05-06 09:04 | -10.60906 | 16.09505 | 39032 ft | 470 kts | 176° |
| 2026-05-06 09:05 | -10.67396 | 16.10281 | 39035 ft | 470 kts | 176° |
| 2026-05-06 09:05 | -10.73887 | 16.11057 | 39039 ft | 470 kts | 176° |
| 2026-05-06 09:06 | -10.80373 | 16.11833 | 39038 ft | 470 kts | 176° |
| 2026-05-06 09:06 | -10.86864 | 16.12610 | 39038 ft | 470 kts | 176° |
| 2026-05-06 09:07 | -10.93308 | 16.13379 | 39040 ft | 468 kts | 177° |
| 2026-05-06 09:07 | -10.99770 | 16.14069 | 39040 ft | 466 kts | 177° |
| 2026-05-06 09:08 | -11.06229 | 16.14728 | 39040 ft | 466 kts | 177° |
| 2026-05-06 09:08 | -11.12683 | 16.15395 | 39039 ft | 466 kts | 177° |
| 2026-05-06 09:09 | -11.19145 | 16.16073 | 39045 ft | 467 kts | 177° |
| 2026-05-06 09:09 | -11.25603 | 16.16755 | 39046 ft | 467 kts | 177° |
| 2026-05-06 09:10 | -11.32061 | 16.17437 | 39048 ft | 467 kts | 177° |
| 2026-05-06 09:10 | -11.38520 | 16.18119 | 39051 ft | 467 kts | 177° |
| 2026-05-06 09:11 | -11.44981 | 16.18801 | 39056 ft | 467 kts | 177° |
| 2026-05-06 09:11 | -11.51438 | 16.19483 | 39052 ft | 467 kts | 177° |
| 2026-05-06 09:12 | -11.57896 | 16.20165 | 39061 ft | 467 kts | 177° |
| 2026-05-06 09:12 | -11.64345 | 16.20846 | 39053 ft | 465 kts | 177° |
| 2026-05-06 09:13 | -11.70773 | 16.21526 | 39045 ft | 464 kts | 177° |
| 2026-05-06 09:13 | -11.77203 | 16.22206 | 39055 ft | 464 kts | 177° |
| 2026-05-06 09:14 | -11.83628 | 16.22886 | 39048 ft | 464 kts | 177° |
| 2026-05-06 09:14 | -11.90061 | 16.23566 | 39049 ft | 464 kts | 177° |
| 2026-05-06 09:15 | -11.96487 | 16.24248 | 39048 ft | 464 kts | 178° |
| 2026-05-06 09:15 | -12.02895 | 16.24927 | 39054 ft | 463 kts | 178° |
| 2026-05-06 09:16 | -12.09262 | 16.25603 | 39049 ft | 463 kts | 178° |
| 2026-05-06 09:16 | -12.15672 | 16.26282 | 39048 ft | 463 kts | 178° |
| 2026-05-06 09:17 | -12.22084 | 16.26961 | 39045 ft | 463 kts | 178° |
| 2026-05-06 09:17 | -12.28490 | 16.27651 | 39062 ft | 463 kts | 178° |
| 2026-05-06 09:18 | -12.34899 | 16.28355 | 39048 ft | 463 kts | 178° |
| 2026-05-06 09:18 | -12.41299 | 16.29058 | 39056 ft | 462 kts | 178° |
| 2026-05-06 09:19 | -12.47698 | 16.29759 | 39054 ft | 463 kts | 178° |
| 2026-05-06 09:19 | -12.54099 | 16.30460 | 39059 ft | 463 kts | 178° |
| 2026-05-06 09:20 | -12.60504 | 16.31162 | 39066 ft | 463 kts | 178° |
| 2026-05-06 09:20 | -12.66903 | 16.31865 | 39055 ft | 462 kts | 178° |
| 2026-05-06 09:21 | -12.73282 | 16.32565 | 39069 ft | 461 kts | 178° |
| 2026-05-06 09:21 | -12.79654 | 16.33265 | 39063 ft | 460 kts | 178° |
| 2026-05-06 09:22 | -12.86026 | 16.33964 | 39058 ft | 461 kts | 178° |
| 2026-05-06 09:22 | -12.91321 | 16.34546 | 39061 ft | 460 kts | 178° |
| 2026-05-06 09:23 | -12.97693 | 16.35247 | 39066 ft | 461 kts | 178° |
| 2026-05-06 09:23 | -13.04059 | 16.35948 | 39048 ft | 459 kts | 178° |
| 2026-05-06 09:24 | -13.10406 | 16.36646 | 39054 ft | 459 kts | 178° |
| 2026-05-06 09:24 | -13.16750 | 16.37344 | 39061 ft | 459 kts | 178° |
| 2026-05-06 09:25 | -13.23098 | 16.38043 | 39054 ft | 459 kts | 178° |
| 2026-05-06 09:25 | -13.29442 | 16.38743 | 39058 ft | 458 kts | 178° |
| 2026-05-06 09:26 | -13.35786 | 16.39443 | 39048 ft | 458 kts | 178° |
| 2026-05-06 09:26 | -13.42121 | 16.40142 | 39048 ft | 458 kts | 178° |
| 2026-05-06 09:27 | -13.48463 | 16.40841 | 39052 ft | 458 kts | 178° |
| 2026-05-06 09:27 | -13.54801 | 16.41541 | 39047 ft | 458 kts | 178° |
| 2026-05-06 09:28 | -13.61143 | 16.42242 | 39058 ft | 458 kts | 178° |
| 2026-05-06 09:28 | -13.67484 | 16.42944 | 39048 ft | 458 kts | 179° |
| 2026-05-06 09:29 | -13.73831 | 16.43647 | 39048 ft | 459 kts | 179° |
| 2026-05-06 09:29 | -13.80178 | 16.44351 | 39044 ft | 459 kts | 179° |
| 2026-05-06 09:30 | -13.86523 | 16.45054 | 39045 ft | 459 kts | 179° |
| 2026-05-06 09:30 | -13.92867 | 16.45757 | 39048 ft | 459 kts | 179° |
| 2026-05-06 09:31 | -13.99211 | 16.46459 | 39046 ft | 459 kts | 179° |
| 2026-05-06 09:31 | -14.05561 | 16.47164 | 39044 ft | 459 kts | 179° |
| 2026-05-06 09:32 | -14.11911 | 16.47869 | 39045 ft | 459 kts | 179° |
| 2026-05-06 09:32 | -14.18265 | 16.48575 | 39046 ft | 459 kts | 179° |
| 2026-05-06 09:33 | -14.24617 | 16.49281 | 39042 ft | 459 kts | 179° |
| 2026-05-06 09:33 | -14.30966 | 16.49988 | 39042 ft | 459 kts | 179° |
| 2026-05-06 09:34 | -14.37271 | 16.50690 | 39046 ft | 459 kts | 179° |
| 2026-05-06 09:34 | -14.43616 | 16.51396 | 39042 ft | 459 kts | 179° |
| 2026-05-06 09:35 | -14.49964 | 16.52103 | 39043 ft | 459 kts | 179° |
| 2026-05-06 09:35 | -14.56310 | 16.52810 | 39042 ft | 459 kts | 179° |
| 2026-05-06 09:36 | -14.62657 | 16.53518 | 39041 ft | 459 kts | 179° |
| 2026-05-06 09:36 | -14.69002 | 16.54226 | 39043 ft | 459 kts | 179° |
| 2026-05-06 09:37 | -14.75343 | 16.54934 | 39044 ft | 459 kts | 179° |
| 2026-05-06 09:37 | -14.81689 | 16.55644 | 39042 ft | 459 kts | 179° |
| 2026-05-06 09:38 | -14.88033 | 16.56353 | 39042 ft | 459 kts | 179° |
| 2026-05-06 09:38 | -14.94375 | 16.57062 | 39043 ft | 459 kts | 179° |
| 2026-05-06 09:39 | -15.00724 | 16.57772 | 39041 ft | 459 kts | 179° |
| 2026-05-06 09:39 | -15.07063 | 16.58482 | 39044 ft | 458 kts | 179° |
| 2026-05-06 09:40 | -15.13402 | 16.59193 | 39042 ft | 458 kts | 179° |
| 2026-05-06 09:40 | -15.22910 | 16.60262 | 39046 ft | 458 kts | 179° |
| 2026-05-06 09:41 | -15.29246 | 16.60987 | 39045 ft | 458 kts | 179° |
| 2026-05-06 09:41 | -15.35583 | 16.61714 | 39045 ft | 458 kts | 179° |
| 2026-05-06 09:42 | -15.41926 | 16.62441 | 39043 ft | 458 kts | 179° |
| 2026-05-06 09:42 | -15.48220 | 16.63161 | 39049 ft | 458 kts | 179° |
| 2026-05-06 09:43 | -15.54555 | 16.63886 | 39045 ft | 458 kts | 179° |
| 2026-05-06 09:43 | -15.60897 | 16.64612 | 39050 ft | 458 kts | 179° |
| 2026-05-06 09:44 | -15.67233 | 16.65337 | 39047 ft | 458 kts | 179° |
| 2026-05-06 09:44 | -15.73573 | 16.66065 | 39051 ft | 458 kts | 180° |
| 2026-05-06 09:45 | -15.79914 | 16.66792 | 39050 ft | 459 kts | 180° |
| 2026-05-06 09:45 | -15.86256 | 16.67521 | 39055 ft | 458 kts | 180° |
| 2026-05-06 09:46 | -15.92603 | 16.68250 | 39054 ft | 459 kts | 180° |
| 2026-05-06 09:46 | -15.98946 | 16.68979 | 39053 ft | 459 kts | 180° |
| 2026-05-06 09:47 | -16.05289 | 16.69709 | 39060 ft | 459 kts | 180° |
| 2026-05-06 09:47 | -16.11634 | 16.70439 | 39053 ft | 459 kts | 180° |
| 2026-05-06 09:48 | -16.17977 | 16.71169 | 39053 ft | 459 kts | 180° |
| 2026-05-06 09:48 | -16.24327 | 16.71901 | 39053 ft | 459 kts | 180° |
| 2026-05-06 09:49 | -16.30674 | 16.72633 | 39053 ft | 459 kts | 180° |
| 2026-05-06 09:49 | -16.37020 | 16.73366 | 39068 ft | 459 kts | 180° |
| 2026-05-06 09:50 | -16.43363 | 16.74099 | 39051 ft | 459 kts | 180° |
| 2026-05-06 09:50 | -16.49708 | 16.74832 | 39051 ft | 459 kts | 180° |
| 2026-05-06 09:51 | -16.56053 | 16.75565 | 39052 ft | 459 kts | 180° |
| 2026-05-06 09:51 | -16.62398 | 16.76299 | 39050 ft | 459 kts | 180° |
| 2026-05-06 09:52 | -16.68697 | 16.77028 | 39052 ft | 459 kts | 180° |
| 2026-05-06 09:52 | -16.75040 | 16.77764 | 39049 ft | 458 kts | 181° |
| 2026-05-06 09:53 | -16.81378 | 16.78499 | 39046 ft | 458 kts | 181° |
| 2026-05-06 09:53 | -16.87712 | 16.79233 | 39050 ft | 458 kts | 181° |
| 2026-05-06 09:54 | -16.94048 | 16.79968 | 39049 ft | 458 kts | 181° |
| 2026-05-06 09:54 | -17.00384 | 16.80704 | 39050 ft | 458 kts | 181° |
| 2026-05-06 09:55 | -17.06720 | 16.81441 | 39055 ft | 458 kts | 181° |
| 2026-05-06 09:55 | -17.13043 | 16.82178 | 39049 ft | 457 kts | 181° |
| 2026-05-06 09:56 | -17.19360 | 16.82913 | 39051 ft | 457 kts | 181° |
| 2026-05-06 09:56 | -17.25683 | 16.83649 | 39050 ft | 457 kts | 181° |
| 2026-05-06 09:57 | -17.31995 | 16.84384 | 39051 ft | 457 kts | 181° |
| 2026-05-06 09:57 | -17.38323 | 16.85123 | 39047 ft | 457 kts | 181° |
| 2026-05-06 09:58 | -17.44622 | 16.85857 | 39051 ft | 455 kts | 181° |
| 2026-05-06 09:58 | -17.50921 | 16.86584 | 39047 ft | 455 kts | 181° |
| 2026-05-06 09:59 | -17.57214 | 16.87309 | 39056 ft | 455 kts | 181° |
| 2026-05-06 09:59 | -17.63508 | 16.88036 | 39054 ft | 455 kts | 181° |
| 2026-05-06 10:00 | -17.69802 | 16.88766 | 39070 ft | 455 kts | 181° |
| 2026-05-06 10:00 | -17.76090 | 16.89496 | 39057 ft | 454 kts | 181° |
| 2026-05-06 10:01 | -17.82321 | 16.90219 | 39054 ft | 454 kts | 181° |
| 2026-05-06 10:01 | -17.88597 | 16.90947 | 39056 ft | 454 kts | 181° |
| 2026-05-06 10:02 | -17.94872 | 16.91675 | 39059 ft | 454 kts | 181° |
| 2026-05-06 10:02 | -18.01148 | 16.92405 | 39057 ft | 454 kts | 181° |
| 2026-05-06 10:03 | -18.07423 | 16.93135 | 39053 ft | 454 kts | 181° |
| 2026-05-06 10:03 | -18.13698 | 16.93866 | 39065 ft | 454 kts | 181° |
| 2026-05-06 10:04 | -18.19974 | 16.94597 | 39064 ft | 454 kts | 181° |
| 2026-05-06 10:04 | -18.26248 | 16.95328 | 39065 ft | 454 kts | 181° |
| 2026-05-06 10:05 | -18.32523 | 16.96061 | 39062 ft | 454 kts | 181° |
| 2026-05-06 10:05 | -18.38798 | 16.96794 | 39070 ft | 453 kts | 182° |
| 2026-05-06 10:06 | -18.45065 | 16.97527 | 39066 ft | 453 kts | 182° |
| 2026-05-06 10:06 | -18.51332 | 16.98259 | 39069 ft | 453 kts | 182° |
| 2026-05-06 10:07 | -18.57596 | 16.98992 | 39070 ft | 453 kts | 182° |
| 2026-05-06 10:07 | -18.63858 | 16.99725 | 39070 ft | 453 kts | 182° |
| 2026-05-06 10:08 | -18.70126 | 17.00460 | 39074 ft | 453 kts | 182° |
| 2026-05-06 10:08 | -18.76399 | 17.01195 | 39076 ft | 454 kts | 182° |
| 2026-05-06 10:09 | -18.82671 | 17.01932 | 39074 ft | 453 kts | 182° |
| 2026-05-06 10:09 | -18.88946 | 17.02669 | 39074 ft | 454 kts | 182° |
| 2026-05-06 10:10 | -18.94157 | 17.03282 | 39078 ft | 453 kts | 182° |
| 2026-05-06 10:10 | -19.00425 | 17.04019 | 39082 ft | 453 kts | 182° |
| 2026-05-06 10:11 | -19.06701 | 17.04757 | 39072 ft | 454 kts | 182° |
| 2026-05-06 10:11 | -19.12982 | 17.05497 | 39073 ft | 454 kts | 182° |
| 2026-05-06 10:12 | -19.19269 | 17.06243 | 39072 ft | 455 kts | 181° |
| 2026-05-06 10:12 | -19.25558 | 17.07011 | 39073 ft | 455 kts | 181° |
| 2026-05-06 10:13 | -19.31848 | 17.07783 | 39096 ft | 455 kts | 181° |
| 2026-05-06 10:13 | -19.38145 | 17.08553 | 39070 ft | 456 kts | 181° |
| 2026-05-06 10:14 | -19.44456 | 17.09323 | 39072 ft | 456 kts | 181° |
| 2026-05-06 10:14 | -19.50720 | 17.10089 | 39068 ft | 456 kts | 181° |
| 2026-05-06 10:15 | -19.57035 | 17.10861 | 39078 ft | 457 kts | 181° |
| 2026-05-06 10:15 | -19.63340 | 17.11633 | 39075 ft | 456 kts | 181° |
| 2026-05-06 10:16 | -19.69659 | 17.12406 | 39081 ft | 458 kts | 181° |
| 2026-05-06 10:16 | -19.75992 | 17.13181 | 39080 ft | 458 kts | 181° |
| 2026-05-06 10:17 | -19.82327 | 17.13958 | 39089 ft | 458 kts | 181° |
| 2026-05-06 10:17 | -19.88666 | 17.14737 | 39089 ft | 458 kts | 181° |
| 2026-05-06 10:18 | -19.95002 | 17.15516 | 39100 ft | 458 kts | 181° |
| 2026-05-06 10:18 | -20.01343 | 17.16295 | 39100 ft | 459 kts | 180° |
| 2026-05-06 10:19 | -20.07697 | 17.17076 | 39109 ft | 460 kts | 180° |
| 2026-05-06 10:19 | -20.14050 | 17.17859 | 39110 ft | 460 kts | 180° |
| 2026-05-06 10:20 | -20.20408 | 17.18643 | 39115 ft | 460 kts | 180° |
| 2026-05-06 10:20 | -20.26762 | 17.19427 | 39125 ft | 460 kts | 180° |
| 2026-05-06 10:21 | -20.33120 | 17.20212 | 39130 ft | 460 kts | 180° |
| 2026-05-06 10:21 | -20.39491 | 17.20998 | 39130 ft | 461 kts | 180° |
| 2026-05-06 10:22 | -20.45860 | 17.21787 | 39137 ft | 461 kts | 180° |
| 2026-05-06 10:22 | -20.52229 | 17.22576 | 39138 ft | 461 kts | 180° |
| 2026-05-06 10:23 | -20.58559 | 17.23360 | 39137 ft | 461 kts | 180° |
| 2026-05-06 10:23 | -20.64928 | 17.24150 | 39135 ft | 461 kts | 180° |
| 2026-05-06 10:24 | -20.71297 | 17.24940 | 39132 ft | 461 kts | 180° |
| 2026-05-06 10:24 | -20.77663 | 17.25730 | 39133 ft | 461 kts | 180° |
| 2026-05-06 10:25 | -20.84033 | 17.26524 | 39129 ft | 461 kts | 180° |
| 2026-05-06 10:25 | -20.90404 | 17.27316 | 39130 ft | 461 kts | 180° |
| 2026-05-06 10:26 | -20.96766 | 17.28104 | 39126 ft | 460 kts | 181° |
| 2026-05-06 10:26 | -21.03118 | 17.28892 | 39135 ft | 459 kts | 181° |
| 2026-05-06 10:27 | -21.09462 | 17.29681 | 39131 ft | 459 kts | 181° |
| 2026-05-06 10:27 | -21.15815 | 17.30472 | 39123 ft | 459 kts | 181° |
| 2026-05-06 10:28 | -21.22161 | 17.31262 | 39132 ft | 459 kts | 181° |
| 2026-05-06 10:28 | -21.28507 | 17.32054 | 39130 ft | 459 kts | 181° |
| 2026-05-06 10:29 | -21.34859 | 17.32847 | 39127 ft | 459 kts | 181° |
| 2026-05-06 10:29 | -21.41204 | 17.33640 | 39126 ft | 459 kts | 181° |
| 2026-05-06 10:30 | -21.47554 | 17.34434 | 39131 ft | 459 kts | 181° |
| 2026-05-06 10:30 | -21.53856 | 17.35223 | 39144 ft | 459 kts | 181° |
| 2026-05-06 10:31 | -21.60196 | 17.36018 | 39120 ft | 458 kts | 181° |
| 2026-05-06 10:31 | -21.66522 | 17.36811 | 39122 ft | 458 kts | 181° |
| 2026-05-06 10:32 | -21.72853 | 17.37605 | 39122 ft | 458 kts | 181° |
| 2026-05-06 10:32 | -21.79178 | 17.38399 | 39126 ft | 458 kts | 181° |
| 2026-05-06 10:33 | -21.85505 | 17.39195 | 39150 ft | 458 kts | 181° |
| 2026-05-06 10:33 | -21.91826 | 17.39991 | 39134 ft | 456 kts | 181° |
| 2026-05-06 10:34 | -21.98132 | 17.40785 | 39135 ft | 456 kts | 181° |
| 2026-05-06 10:34 | -22.04440 | 17.41580 | 39137 ft | 456 kts | 181° |
| 2026-05-06 10:35 | -22.10747 | 17.42375 | 39142 ft | 456 kts | 181° |
| 2026-05-06 10:35 | -22.17056 | 17.43172 | 39178 ft | 456 kts | 181° |
| 2026-05-06 10:36 | -22.23352 | 17.43969 | 39194 ft | 455 kts | 181° |
| 2026-05-06 10:36 | -22.29636 | 17.44764 | 39229 ft | 455 kts | 181° |
| 2026-05-06 10:37 | -22.35913 | 17.45558 | 39252 ft | 454 kts | 181° |
| 2026-05-06 10:37 | -22.42199 | 17.46354 | 39266 ft | 455 kts | 181° |
| 2026-05-06 10:38 | -22.48484 | 17.47152 | 39487 ft | 454 kts | 182° |
| 2026-05-06 10:38 | -22.51612 | 17.47601 | 39663 ft | 454 kts | 180° |
| 2026-05-06 10:38 | -22.54734 | 17.48111 | 39923 ft | 454 kts | 179° |
| 2026-05-06 10:39 | -22.57855 | 17.48645 | 40111 ft | 454 kts | 179° |
| 2026-05-06 10:39 | -22.60979 | 17.49183 | 40162 ft | 454 kts | 179° |
| 2026-05-06 10:39 | -22.67219 | 17.50241 | 40162 ft | 454 kts | 180° |
| 2026-05-06 10:40 | -22.73464 | 17.51274 | 40159 ft | 454 kts | 180° |
| 2026-05-06 10:40 | -22.79705 | 17.52299 | 40160 ft | 453 kts | 180° |
| 2026-05-06 10:41 | -22.85915 | 17.53321 | 40159 ft | 451 kts | 180° |
| 2026-05-06 10:41 | -22.92122 | 17.54340 | 40155 ft | 451 kts | 180° |
| 2026-05-06 10:42 | -22.98285 | 17.55353 | 40154 ft | 451 kts | 180° |
| 2026-05-06 10:42 | -23.04491 | 17.56376 | 40155 ft | 451 kts | 180° |
| 2026-05-06 10:43 | -23.10692 | 17.57400 | 40153 ft | 450 kts | 180° |
| 2026-05-06 10:44 | -23.19945 | 17.58930 | 40150 ft | 448 kts | 180° |
| 2026-05-06 10:44 | -23.26115 | 17.59950 | 40151 ft | 448 kts | 180° |
| 2026-05-06 10:45 | -23.32284 | 17.60967 | 40158 ft | 448 kts | 180° |
| 2026-05-06 10:45 | -23.38450 | 17.61978 | 40166 ft | 448 kts | 181° |
| 2026-05-06 10:46 | -23.44596 | 17.62989 | 40149 ft | 446 kts | 181° |
| 2026-05-06 10:46 | -23.50736 | 17.64001 | 40146 ft | 446 kts | 181° |
| 2026-05-06 10:47 | -23.56872 | 17.65011 | 40146 ft | 446 kts | 181° |
| 2026-05-06 10:47 | -23.63009 | 17.66018 | 40146 ft | 446 kts | 181° |
| 2026-05-06 10:48 | -23.69142 | 17.67026 | 40156 ft | 446 kts | 181° |
| 2026-05-06 10:48 | -23.75278 | 17.68037 | 40152 ft | 446 kts | 181° |
| 2026-05-06 10:49 | -23.81421 | 17.69049 | 40151 ft | 446 kts | 181° |
| 2026-05-06 10:49 | -23.87556 | 17.70044 | 40144 ft | 446 kts | 181° |
| 2026-05-06 10:50 | -23.93694 | 17.71039 | 40150 ft | 446 kts | 181° |
| 2026-05-06 10:50 | -23.99837 | 17.72038 | 40156 ft | 446 kts | 181° |
| 2026-05-06 10:51 | -24.05977 | 17.73039 | 40152 ft | 447 kts | 181° |
| 2026-05-06 10:51 | -24.12085 | 17.74036 | 40153 ft | 447 kts | 181° |
| 2026-05-06 10:52 | -24.18232 | 17.75042 | 40146 ft | 446 kts | 181° |
| 2026-05-06 10:52 | -24.24379 | 17.76048 | 40146 ft | 446 kts | 181° |
| 2026-05-06 10:53 | -24.30522 | 17.77054 | 40145 ft | 446 kts | 181° |
| 2026-05-06 10:53 | -24.36668 | 17.78061 | 40145 ft | 446 kts | 181° |
| 2026-05-06 10:54 | -24.42812 | 17.79069 | 40145 ft | 446 kts | 181° |
| 2026-05-06 10:54 | -24.48956 | 17.80079 | 40145 ft | 447 kts | 181° |
| 2026-05-06 10:55 | -24.55101 | 17.81081 | 40146 ft | 446 kts | 182° |
| 2026-05-06 10:55 | -24.61242 | 17.82061 | 40142 ft | 446 kts | 182° |
| 2026-05-06 10:56 | -24.67388 | 17.83042 | 40143 ft | 446 kts | 182° |
| 2026-05-06 10:56 | -24.73539 | 17.84030 | 40143 ft | 447 kts | 182° |
| 2026-05-06 10:57 | -24.79691 | 17.85022 | 40140 ft | 447 kts | 182° |
| 2026-05-06 10:57 | -24.85840 | 17.86014 | 40178 ft | 447 kts | 182° |
| 2026-05-06 10:58 | -24.91976 | 17.87007 | 40137 ft | 445 kts | 182° |
| 2026-05-06 10:58 | -24.98056 | 17.87989 | 40139 ft | 445 kts | 182° |
| 2026-05-06 10:59 | -25.04175 | 17.88981 | 40143 ft | 445 kts | 182° |
| 2026-05-06 10:59 | -25.10301 | 17.89982 | 40143 ft | 445 kts | 182° |
| 2026-05-06 11:00 | -25.16421 | 17.90983 | 40164 ft | 445 kts | 182° |
| 2026-05-06 11:00 | -25.21540 | 17.91823 | 40143 ft | 444 kts | 182° |
| 2026-05-06 11:01 | -25.27651 | 17.92825 | 40142 ft | 444 kts | 182° |
| 2026-05-06 11:01 | -25.33717 | 17.93820 | 40140 ft | 444 kts | 182° |
| 2026-05-06 11:02 | -25.39867 | 17.94829 | 40149 ft | 444 kts | 182° |
| 2026-05-06 11:02 | -25.45933 | 17.95826 | 40150 ft | 444 kts | 182° |
| 2026-05-06 11:03 | -25.52038 | 17.96832 | 40139 ft | 443 kts | 182° |
| 2026-05-06 11:03 | -25.58133 | 17.97838 | 40138 ft | 443 kts | 182° |
| 2026-05-06 11:04 | -25.64231 | 17.98843 | 40139 ft | 443 kts | 182° |
| 2026-05-06 11:04 | -25.70328 | 17.99849 | 40140 ft | 443 kts | 182° |
| 2026-05-06 11:05 | -25.76422 | 18.00855 | 40148 ft | 443 kts | 181° |
| 2026-05-06 11:05 | -25.82513 | 18.01865 | 40143 ft | 442 kts | 181° |
| 2026-05-06 11:06 | -25.88599 | 18.02873 | 40143 ft | 442 kts | 181° |
| 2026-05-06 11:06 | -25.94691 | 18.03882 | 40143 ft | 442 kts | 181° |
| 2026-05-06 11:07 | -26.00780 | 18.04892 | 40148 ft | 442 kts | 181° |
| 2026-05-06 11:07 | -26.06871 | 18.05903 | 40149 ft | 442 kts | 181° |
| 2026-05-06 11:08 | -26.12963 | 18.06916 | 40145 ft | 443 kts | 181° |
| 2026-05-06 11:08 | -26.19056 | 18.07931 | 40141 ft | 443 kts | 181° |
| 2026-05-06 11:09 | -26.25151 | 18.08947 | 40143 ft | 443 kts | 181° |
| 2026-05-06 11:09 | -26.31247 | 18.09963 | 40168 ft | 443 kts | 181° |
| 2026-05-06 11:10 | -26.37336 | 18.10980 | 40146 ft | 443 kts | 181° |
| 2026-05-06 11:10 | -26.43427 | 18.11999 | 40144 ft | 443 kts | 181° |
| 2026-05-06 11:11 | -26.49519 | 18.13019 | 40142 ft | 443 kts | 181° |
| 2026-05-06 11:11 | -26.55612 | 18.14040 | 40142 ft | 443 kts | 181° |
| 2026-05-06 11:12 | -26.61663 | 18.15054 | 40152 ft | 443 kts | 181° |
| 2026-05-06 11:12 | -26.67751 | 18.16078 | 40143 ft | 442 kts | 181° |
| 2026-05-06 11:13 | -26.73837 | 18.17100 | 40143 ft | 442 kts | 181° |
| 2026-05-06 11:13 | -26.79927 | 18.18125 | 40135 ft | 442 kts | 181° |
| 2026-05-06 11:14 | -26.86011 | 18.19150 | 40142 ft | 442 kts | 181° |
| 2026-05-06 11:14 | -26.92093 | 18.20176 | 40136 ft | 441 kts | 180° |
| 2026-05-06 11:15 | -26.98159 | 18.21201 | 40133 ft | 441 kts | 180° |
| 2026-05-06 11:15 | -27.04231 | 18.22228 | 40129 ft | 441 kts | 180° |
| 2026-05-06 11:16 | -27.10302 | 18.23254 | 40141 ft | 441 kts | 180° |
| 2026-05-06 11:16 | -27.16365 | 18.24281 | 40126 ft | 441 kts | 180° |
| 2026-05-06 11:17 | -27.22433 | 18.25309 | 40134 ft | 441 kts | 180° |
| 2026-05-06 11:17 | -27.28456 | 18.26332 | 40132 ft | 441 kts | 180° |
| 2026-05-06 11:18 | -27.34521 | 18.27362 | 40136 ft | 441 kts | 180° |
| 2026-05-06 11:18 | -27.40586 | 18.28394 | 40141 ft | 441 kts | 180° |
| 2026-05-06 11:19 | -27.46652 | 18.29427 | 40146 ft | 440 kts | 180° |
| 2026-05-06 11:19 | -27.52705 | 18.30404 | 40143 ft | 437 kts | 183° |
| 2026-05-06 11:20 | -27.58732 | 18.30898 | 40146 ft | 433 kts | 185° |
| 2026-05-06 11:20 | -27.64753 | 18.31268 | 40146 ft | 434 kts | 185° |
| 2026-05-06 11:21 | -27.70781 | 18.31702 | 40152 ft | 434 kts | 185° |
| 2026-05-06 11:21 | -27.76806 | 18.32187 | 40152 ft | 434 kts | 184° |
| 2026-05-06 11:22 | -27.82829 | 18.32687 | 40149 ft | 434 kts | 184° |
| 2026-05-06 11:22 | -27.88849 | 18.33187 | 40147 ft | 434 kts | 184° |
| 2026-05-06 11:23 | -27.94871 | 18.33684 | 40151 ft | 434 kts | 184° |
| 2026-05-06 11:23 | -28.00889 | 18.34173 | 40169 ft | 434 kts | 184° |
| 2026-05-06 11:24 | -28.06872 | 18.34660 | 40146 ft | 434 kts | 184° |
| 2026-05-06 11:24 | -28.12944 | 18.35267 | 40150 ft | 439 kts | 178° |
| 2026-05-06 11:25 | -28.18938 | 18.36412 | 40145 ft | 441 kts | 178° |
| 2026-05-06 11:25 | -28.24973 | 18.37674 | 40145 ft | 441 kts | 178° |
| 2026-05-06 11:26 | -28.31007 | 18.38953 | 40143 ft | 441 kts | 177° |
| 2026-05-06 11:26 | -28.37048 | 18.40229 | 40143 ft | 441 kts | 177° |
| 2026-05-06 11:27 | -28.43091 | 18.41504 | 40146 ft | 442 kts | 177° |
| 2026-05-06 11:27 | -28.49134 | 18.42772 | 40151 ft | 442 kts | 177° |
| 2026-05-06 11:28 | -28.55184 | 18.44042 | 40164 ft | 443 kts | 176° |
| 2026-05-06 11:28 | -28.61240 | 18.45318 | 40139 ft | 443 kts | 176° |
| 2026-05-06 11:29 | -28.67296 | 18.46597 | 40138 ft | 443 kts | 176° |
| 2026-05-06 11:29 | -28.73351 | 18.47877 | 40134 ft | 443 kts | 176° |
| 2026-05-06 11:30 | -28.79408 | 18.49157 | 40139 ft | 443 kts | 176° |
| 2026-05-06 11:30 | -28.85462 | 18.50439 | 40143 ft | 442 kts | 176° |
| 2026-05-06 11:31 | -28.91507 | 18.51722 | 40129 ft | 442 kts | 176° |
| 2026-05-06 11:31 | -28.97548 | 18.53004 | 40128 ft | 442 kts | 176° |
| 2026-05-06 11:32 | -29.03595 | 18.54288 | 40129 ft | 442 kts | 176° |
| 2026-05-06 11:32 | -29.09633 | 18.55573 | 40145 ft | 442 kts | 176° |
| 2026-05-06 11:33 | -29.15672 | 18.56860 | 40122 ft | 441 kts | 176° |
| 2026-05-06 11:33 | -29.21696 | 18.58145 | 40126 ft | 441 kts | 176° |
| 2026-05-06 11:34 | -29.27724 | 18.59432 | 40122 ft | 441 kts | 176° |
| 2026-05-06 11:34 | -29.33754 | 18.60721 | 40116 ft | 441 kts | 176° |
| 2026-05-06 11:35 | -29.39784 | 18.62011 | 40118 ft | 441 kts | 175° |
| 2026-05-06 11:35 | -29.45775 | 18.63295 | 40119 ft | 441 kts | 175° |
| 2026-05-06 11:36 | -29.51803 | 18.64588 | 40114 ft | 441 kts | 175° |
| 2026-05-06 11:36 | -29.57836 | 18.65885 | 40117 ft | 441 kts | 175° |
| 2026-05-06 11:37 | -29.63867 | 18.67181 | 40116 ft | 441 kts | 175° |
| 2026-05-06 11:37 | -29.69902 | 18.68481 | 40113 ft | 441 kts | 175° |
| 2026-05-06 11:38 | -29.75935 | 18.69782 | 40113 ft | 441 kts | 175° |
| 2026-05-06 11:38 | -29.81971 | 18.71085 | 40111 ft | 441 kts | 175° |
| 2026-05-06 11:39 | -29.88002 | 18.72389 | 40108 ft | 441 kts | 175° |
| 2026-05-06 11:39 | -29.94039 | 18.73695 | 40107 ft | 441 kts | 175° |
| 2026-05-06 11:40 | -30.00071 | 18.75002 | 40107 ft | 441 kts | 175° |
| 2026-05-06 11:40 | -30.06107 | 18.76312 | 40108 ft | 441 kts | 175° |
| 2026-05-06 11:41 | -30.12143 | 18.77623 | 40105 ft | 441 kts | 175° |
| 2026-05-06 11:41 | -30.18180 | 18.78935 | 40115 ft | 442 kts | 175° |
| 2026-05-06 11:42 | -30.24185 | 18.80242 | 40103 ft | 442 kts | 175° |
| 2026-05-06 11:42 | -30.30226 | 18.81560 | 40116 ft | 442 kts | 175° |
| 2026-05-06 11:43 | -30.36273 | 18.82880 | 40118 ft | 442 kts | 175° |
| 2026-05-06 11:43 | -30.42313 | 18.84200 | 40116 ft | 442 kts | 174° |
| 2026-05-06 11:44 | -30.51375 | 18.86184 | 40107 ft | 442 kts | 174° |
| 2026-05-06 11:44 | -30.57416 | 18.87509 | 40110 ft | 442 kts | 174° |
| 2026-05-06 11:45 | -30.63455 | 18.88835 | 40107 ft | 442 kts | 174° |
| 2026-05-06 11:45 | -30.69491 | 18.90160 | 40114 ft | 442 kts | 174° |
| 2026-05-06 11:46 | -30.75538 | 18.91491 | 40111 ft | 442 kts | 174° |
| 2026-05-06 11:46 | -30.81584 | 18.92824 | 40110 ft | 442 kts | 174° |
| 2026-05-06 11:47 | -30.87628 | 18.94158 | 40111 ft | 442 kts | 174° |
| 2026-05-06 11:47 | -30.93675 | 18.95494 | 40120 ft | 442 kts | 174° |
| 2026-05-06 11:48 | -30.99674 | 18.96822 | 40105 ft | 442 kts | 174° |
| 2026-05-06 11:48 | -31.05719 | 18.98161 | 40108 ft | 442 kts | 174° |
| 2026-05-06 11:49 | -31.11754 | 18.99499 | 40097 ft | 442 kts | 174° |
| 2026-05-06 11:49 | -31.17793 | 19.00841 | 40102 ft | 442 kts | 174° |
| 2026-05-06 11:50 | -31.23833 | 19.02184 | 40098 ft | 442 kts | 174° |
| 2026-05-06 11:50 | -31.29870 | 19.03528 | 40100 ft | 442 kts | 174° |
| 2026-05-06 11:51 | -31.34885 | 19.04647 | 40097 ft | 442 kts | 174° |
| 2026-05-06 11:51 | -31.40925 | 19.05994 | 40096 ft | 442 kts | 174° |
| 2026-05-06 11:52 | -31.46963 | 19.07343 | 40102 ft | 441 kts | 173° |
| 2026-05-06 11:52 | -31.52991 | 19.08692 | 40095 ft | 441 kts | 173° |
| 2026-05-06 11:53 | -31.59024 | 19.10044 | 40091 ft | 441 kts | 173° |
| 2026-05-06 11:53 | -31.65054 | 19.11397 | 40092 ft | 441 kts | 173° |
| 2026-05-06 11:54 | -31.71083 | 19.12752 | 40083 ft | 440 kts | 173° |
| 2026-05-06 11:54 | -31.77091 | 19.14104 | 40080 ft | 439 kts | 173° |
| 2026-05-06 11:55 | -31.83086 | 19.15455 | 40078 ft | 439 kts | 173° |
| 2026-05-06 11:55 | -31.89081 | 19.16807 | 40076 ft | 439 kts | 173° |
| 2026-05-06 11:56 | -31.95078 | 19.18161 | 40066 ft | 439 kts | 173° |
| 2026-05-06 11:56 | -32.01076 | 19.19517 | 40064 ft | 439 kts | 173° |
| 2026-05-06 11:57 | -32.07070 | 19.20875 | 40070 ft | 439 kts | 173° |
| 2026-05-06 11:57 | -32.13072 | 19.22236 | 40078 ft | 439 kts | 173° |
| 2026-05-06 11:58 | -32.19070 | 19.23598 | 40083 ft | 439 kts | 173° |
| 2026-05-06 11:58 | -32.25070 | 19.24962 | 40073 ft | 439 kts | 173° |
| 2026-05-06 11:59 | -32.31075 | 19.26333 | 40062 ft | 439 kts | 173° |
| 2026-05-06 11:59 | -32.37074 | 19.27698 | 40050 ft | 439 kts | 173° |
| 2026-05-06 12:00 | -32.43077 | 19.29065 | 40058 ft | 439 kts | 173° |
| 2026-05-06 12:00 | -32.49081 | 19.30436 | 40067 ft | 439 kts | 173° |
| 2026-05-06 12:01 | -32.55081 | 19.31809 | 40068 ft | 439 kts | 173° |
| 2026-05-06 12:01 | -32.61083 | 19.33184 | 40072 ft | 440 kts | 173° |
| 2026-05-06 12:02 | -32.66999 | 19.34547 | 39339 ft | 424 kts | 173° |
| 2026-05-06 12:02 | -32.69907 | 19.35215 | 38164 ft | 428 kts | 172° |
| 2026-05-06 12:02 | -32.72855 | 19.35888 | 36632 ft | 436 kts | 172° |
| 2026-05-06 12:03 | -32.75870 | 19.36574 | 35007 ft | 448 kts | 171° |
| 2026-05-06 12:03 | -32.78970 | 19.37282 | 33256 ft | 460 kts | 170° |
| 2026-05-06 12:03 | -32.82142 | 19.38005 | 31540 ft | 467 kts | 171° |
| 2026-05-06 12:03 | -32.85366 | 19.38582 | 29951 ft | 469 kts | 173° |
| 2026-05-06 12:04 | -32.88629 | 19.38723 | 28319 ft | 471 kts | 184° |
| 2026-05-06 12:04 | -32.91880 | 19.38379 | 26815 ft | 467 kts | 188° |
| 2026-05-06 12:04 | -32.95027 | 19.37635 | 25569 ft | 456 kts | 194° |
| 2026-05-06 12:04 | -32.97985 | 19.36389 | 24392 ft | 446 kts | 203° |
| 2026-05-06 12:05 | -33.00637 | 19.34651 | 23216 ft | 438 kts | 212° |
| 2026-05-06 12:05 | -33.03029 | 19.32384 | 21881 ft | 430 kts | 219° |
| 2026-05-06 12:05 | -33.05229 | 19.30021 | 20632 ft | 421 kts | 221° |
| 2026-05-06 12:05 | -33.07336 | 19.27710 | 19442 ft | 413 kts | 221° |
| 2026-05-06 12:06 | -33.09455 | 19.25383 | 18257 ft | 405 kts | 221° |
| 2026-05-06 12:06 | -33.11508 | 19.23127 | 17076 ft | 397 kts | 220° |
| 2026-05-06 12:06 | -33.13471 | 19.20968 | 16253 ft | 380 kts | 220° |
| 2026-05-06 12:06 | -33.15364 | 19.18884 | 15562 ft | 361 kts | 220° |
| 2026-05-06 12:07 | -33.17160 | 19.16908 | 14958 ft | 343 kts | 220° |
| 2026-05-06 12:07 | -33.18890 | 19.15006 | 14365 ft | 335 kts | 219° |
| 2026-05-06 12:07 | -33.20597 | 19.13131 | 13734 ft | 332 kts | 219° |
| 2026-05-06 12:07 | -33.22286 | 19.11275 | 13041 ft | 328 kts | 219° |
| 2026-05-06 12:08 | -33.23951 | 19.09443 | 12380 ft | 323 kts | 219° |
| 2026-05-06 12:08 | -33.25598 | 19.07630 | 11970 ft | 319 kts | 219° |
| 2026-05-06 12:08 | -33.27213 | 19.05849 | 11597 ft | 313 kts | 219° |
| 2026-05-06 12:08 | -33.28794 | 19.04104 | 11220 ft | 306 kts | 219° |
| 2026-05-06 12:09 | -33.30337 | 19.02401 | 10914 ft | 298 kts | 219° |
| 2026-05-06 12:09 | -33.31846 | 19.00736 | 10617 ft | 293 kts | 219° |
| 2026-05-06 12:09 | -33.33341 | 18.99087 | 10334 ft | 292 kts | 219° |
| 2026-05-06 12:09 | -33.34830 | 18.97443 | 10053 ft | 291 kts | 219° |
| 2026-05-06 12:10 | -33.36312 | 18.95806 | 9742 ft | 290 kts | 218° |
| 2026-05-06 12:10 | -33.37535 | 18.93883 | 9438 ft | 297 kts | 240° |
| 2026-05-06 12:10 | -33.38523 | 18.91738 | 9187 ft | 289 kts | 231° |
| 2026-05-06 12:10 | -33.39681 | 18.89851 | 9107 ft | 274 kts | 227° |
| 2026-05-06 12:11 | -33.40850 | 18.88116 | 9080 ft | 261 kts | 225° |
| 2026-05-06 12:11 | -33.41971 | 18.86475 | 9021 ft | 248 kts | 226° |
| 2026-05-06 12:11 | -33.43000 | 18.84897 | 8942 ft | 240 kts | 227° |
| 2026-05-06 12:11 | -33.44010 | 18.83315 | 8828 ft | 239 kts | 227° |
| 2026-05-06 12:12 | -33.45013 | 18.81730 | 8659 ft | 239 kts | 227° |
| 2026-05-06 12:12 | -33.46008 | 18.80127 | 8503 ft | 239 kts | 228° |
| 2026-05-06 12:12 | -33.46990 | 18.78524 | 8357 ft | 239 kts | 228° |
| 2026-05-06 12:12 | -33.47967 | 18.76915 | 8171 ft | 239 kts | 228° |
| 2026-05-06 12:13 | -33.48942 | 18.75304 | 8025 ft | 238 kts | 228° |
| 2026-05-06 12:13 | -33.49910 | 18.73698 | 7882 ft | 237 kts | 228° |
| 2026-05-06 12:13 | -33.50876 | 18.72096 | 7734 ft | 237 kts | 228° |
| 2026-05-06 12:13 | -33.51840 | 18.70500 | 7591 ft | 236 kts | 228° |
| 2026-05-06 12:14 | -33.52804 | 18.68903 | 7442 ft | 237 kts | 228° |
| 2026-05-06 12:14 | -33.53769 | 18.67307 | 7297 ft | 236 kts | 228° |
| 2026-05-06 12:14 | -33.54729 | 18.65716 | 7136 ft | 235 kts | 228° |
| 2026-05-06 12:14 | -33.55689 | 18.64125 | 6992 ft | 236 kts | 228° |
| 2026-05-06 12:15 | -33.56647 | 18.62538 | 6850 ft | 232 kts | 228° |
| 2026-05-06 12:15 | -33.57570 | 18.60997 | 6706 ft | 222 kts | 227° |
| 2026-05-06 12:15 | -33.58449 | 18.59524 | 6600 ft | 213 kts | 227° |
| 2026-05-06 12:15 | -33.59310 | 18.58089 | 6461 ft | 212 kts | 227° |
| 2026-05-06 12:16 | -33.60179 | 18.56656 | 6316 ft | 213 kts | 227° |
| 2026-05-06 12:16 | -33.61048 | 18.55221 | 6161 ft | 212 kts | 227° |
| 2026-05-06 12:16 | -33.61914 | 18.53788 | 6006 ft | 212 kts | 226° |
| 2026-05-06 12:16 | -33.62830 | 18.52419 | 5855 ft | 208 kts | 219° |
| 2026-05-06 12:17 | -33.63952 | 18.51367 | 5696 ft | 202 kts | 204° |
| 2026-05-06 12:17 | -33.65237 | 18.50800 | 5579 ft | 194 kts | 184° |
| 2026-05-06 12:17 | -33.66562 | 18.50849 | 5472 ft | 190 kts | 169° |
| 2026-05-06 12:17 | -33.67856 | 18.51134 | 5369 ft | 189 kts | 165° |
| 2026-05-06 12:18 | -33.69111 | 18.51504 | 5272 ft | 188 kts | 163° |
| 2026-05-06 12:18 | -33.70380 | 18.51909 | 5169 ft | 189 kts | 162° |
| 2026-05-06 12:18 | -33.71650 | 18.52315 | 5066 ft | 189 kts | 163° |
| 2026-05-06 12:18 | -33.72921 | 18.52716 | 5004 ft | 189 kts | 163° |
| 2026-05-06 12:19 | -33.74192 | 18.53109 | 4867 ft | 187 kts | 164° |
| 2026-05-06 12:19 | -33.75423 | 18.53487 | 4629 ft | 180 kts | 163° |
| 2026-05-06 12:19 | -33.76618 | 18.53868 | 4360 ft | 176 kts | 163° |
| 2026-05-06 12:19 | -33.77792 | 18.54241 | 4094 ft | 173 kts | 162° |
| 2026-05-06 12:20 | -33.78946 | 18.54605 | 3828 ft | 170 kts | 162° |
| 2026-05-06 12:20 | -33.80075 | 18.54962 | 3578 ft | 165 kts | 161° |
| 2026-05-06 12:20 | -33.81175 | 18.55310 | 3381 ft | 161 kts | 161° |
| 2026-05-06 12:20 | -33.82231 | 18.55643 | 3131 ft | 151 kts | 160° |
| 2026-05-06 12:21 | -33.83205 | 18.55951 | 2914 ft | 138 kts | 159° |
| 2026-05-06 12:21 | -33.84090 | 18.56231 | 2737 ft | 125 kts | 159° |
| 2026-05-06 12:21 | -33.84895 | 18.56486 | 2554 ft | 115 kts | 158° |
| 2026-05-06 12:21 | -33.85664 | 18.56732 | 2395 ft | 114 kts | 159° |
| 2026-05-06 12:22 | -33.86431 | 18.56977 | 2215 ft | 114 kts | 160° |
| 2026-05-06 12:22 | -33.87205 | 18.57221 | 2062 ft | 115 kts | 161° |
| 2026-05-06 12:22 | -33.87983 | 18.57468 | 1883 ft | 116 kts | 160° |
| 2026-05-06 12:22 | -33.88759 | 18.57713 | 1725 ft | 115 kts | 160° |
| 2026-05-06 12:23 | -33.89531 | 18.57962 | 1559 ft | 116 kts | 163° |
| 2026-05-06 12:23 | -33.90315 | 18.58208 | 1398 ft | 117 kts | 163° |
| 2026-05-06 12:23 | -33.91101 | 18.58457 | 1229 ft | 117 kts | 162° |
| 2026-05-06 12:23 | -33.91886 | 18.58705 | 1064 ft | 116 kts | 162° |
| 2026-05-06 12:24 | -33.92668 | 18.58952 | 915 ft | 116 kts | 161° |
| 2026-05-06 12:24 | -33.93451 | 18.59194 | 732 ft | 117 kts | 163° |
| 2026-05-06 12:24 | -33.94221 | 18.59444 | 546 ft | 116 kts | 165° |
| 2026-05-06 12:24 | -33.94998 | 18.59696 | 354 ft | 116 kts | 165° |
| 2026-05-06 12:25 | -33.95785 | 18.59945 | 226 ft | 118 kts | 165° |
| 2026-05-06 12:25 | -33.96585 | 18.60194 | 168 ft | 118 kts | 165° |
| 2026-05-06 12:25 | -33.97315 | 18.60428 | 159 ft | 94 kts | 165° |
| 2026-05-06 12:25 | -33.97849 | 18.60597 | 161 ft | 66 kts | 165° |
| 2026-05-06 12:26 | -33.98249 | 18.60723 | 165 ft | 54 kts | 166° |
| 2026-05-06 12:26 | -33.98574 | 18.60826 | 159 ft | 36 kts | 165° |
| 2026-05-06 12:26 | -33.98677 | 18.60858 | 160 ft | 11 kts | 165° |
| 2026-05-06 12:26 | -33.98750 | 18.60858 | 161 ft | 10 kts | 207° |
| 2026-05-06 12:27 | -33.98786 | 18.60790 | 161 ft | 11 kts | 249° |
| 2026-05-06 12:27 | -33.98801 | 18.60686 | 160 ft | 11 kts | 285° |
| 2026-05-06 12:27 | -33.98748 | 18.60633 | 160 ft | 12 kts | 332° |
| 2026-05-06 12:27 | -33.98650 | 18.60592 | 160 ft | 17 kts | 341° |
| 2026-05-06 12:28 | -33.98526 | 18.60539 | 160 ft | 21 kts | 340° |
| 2026-05-06 12:28 | -33.98376 | 18.60474 | 160 ft | 25 kts | 340° |
| 2026-05-06 12:28 | -33.98201 | 18.60398 | 160 ft | 29 kts | 340° |
| 2026-05-06 12:28 | -33.98009 | 18.60316 | 160 ft | 27 kts | 341° |
| 2026-05-06 12:29 | -33.97817 | 18.60234 | 160 ft | 31 kts | 340° |
| 2026-05-06 12:29 | -33.97616 | 18.60148 | 160 ft | 30 kts | 340° |
| 2026-05-06 12:29 | -33.97425 | 18.60058 | 160 ft | 30 kts | 343° |
| 2026-05-06 12:29 | -33.97250 | 18.60002 | 160 ft | 21 kts | 346° |
| 2026-05-06 12:30 | -33.97095 | 18.59961 | 160 ft | 25 kts | 352° |
| 2026-05-06 12:30 | -33.96946 | 18.59916 | 160 ft | 19 kts | 345° |
| 2026-05-06 12:30 | -33.96790 | 18.59865 | 160 ft | 16 kts | 345° |
| 2026-05-06 12:30 | -33.96776 | 18.59859 | 160 ft | 1 kts | 337° |
| 2026-05-06 12:31 | -33.96766 | 18.59843 | 160 ft | 5 kts | 301° |
| 2026-05-06 12:31 | -33.96764 | 18.59797 | 160 ft | 7 kts | 263° |
| 2026-05-06 12:31 | -33.96770 | 18.59766 | 160 ft | 0 kts | 256° |